DLH468 KLAX-EDDF
Flight info
| Callsign | DLH468 |
|---|---|
| Flight time | N/A |
| Altitude | 35000 |
| Route | DOTSS2 CLEEE DCT PKE DCT KA30O DCT KD36Q DCT KD45U/N0492F370 DCT KD57A DCT KP69G DCT KG75K DCT BAE DCT ODAXY DCT 4630N08000W DCT MOFAT/N0490F390 DCT 52N065W DCT JANJO/M084F400 NATT KESIX/N0491F410 DCT AMLAD DCT EMGAT DCT ERKIT N110 DOLAS DCT NAVPI DCT NOLRU DCT DIXAT DIXAT1B |
| Aircraft | A359/H-SDE2E3GHIJ3J4J5LM1ORWXY/LB1D1 |
Departure
| Time | 2026-05-06 22:28 |
|---|---|
| Airport | Los Angeles International Airport (KLAX) |
Arrival
| Time | N/A |
|---|---|
| Airport | Frankfurt Main Airport (EDDF) |
| Time | Latitude | Longitude | Altitude | Speed | Heading |
|---|---|---|---|---|---|
| 2026-05-06 22:01 | 33.94022 | -118.40948 | 150 ft | 0 kts | 264° |
| 2026-05-06 22:11 | 33.94024 | -118.40926 | 127 ft | 4 kts | 261° |
| 2026-05-06 22:11 | 33.94029 | -118.40895 | 130 ft | 4 kts | 253° |
| 2026-05-06 22:12 | 33.94038 | -118.40866 | 132 ft | 4 kts | 240° |
| 2026-05-06 22:12 | 33.94053 | -118.40841 | 131 ft | 4 kts | 217° |
| 2026-05-06 22:12 | 33.94070 | -118.40830 | 132 ft | 4 kts | 176° |
| 2026-05-06 22:12 | 33.94058 | -118.40828 | 127 ft | 4 kts | 173° |
| 2026-05-06 22:13 | 33.94031 | -118.40824 | 128 ft | 4 kts | 173° |
| 2026-05-06 22:13 | 33.94004 | -118.40820 | 129 ft | 4 kts | 173° |
| 2026-05-06 22:13 | 33.93977 | -118.40816 | 130 ft | 4 kts | 173° |
| 2026-05-06 22:13 | 33.93957 | -118.40813 | 127 ft | 1 kts | 173° |
| 2026-05-06 22:14 | 33.93976 | -118.40816 | 130 ft | 4 kts | 173° |
| 2026-05-06 22:14 | 33.93982 | -118.40817 | 130 ft | 0 kts | 173° |
| 2026-05-06 22:18 | 33.93979 | -118.40816 | 130 ft | 3 kts | 173° |
| 2026-05-06 22:18 | 33.93940 | -118.40810 | 127 ft | 6 kts | 171° |
| 2026-05-06 22:18 | 33.93904 | -118.40789 | 129 ft | 6 kts | 142° |
| 2026-05-06 22:19 | 33.93869 | -118.40756 | 128 ft | 7 kts | 142° |
| 2026-05-06 22:19 | 33.93830 | -118.40720 | 129 ft | 7 kts | 130° |
| 2026-05-06 22:19 | 33.93815 | -118.40660 | 129 ft | 8 kts | 96° |
| 2026-05-06 22:19 | 33.93820 | -118.40593 | 128 ft | 8 kts | 83° |
| 2026-05-06 22:20 | 33.93826 | -118.40520 | 124 ft | 9 kts | 85° |
| 2026-05-06 22:20 | 33.93833 | -118.40443 | 132 ft | 10 kts | 84° |
| 2026-05-06 22:20 | 33.93842 | -118.40357 | 132 ft | 11 kts | 82° |
| 2026-05-06 22:20 | 33.93854 | -118.40258 | 128 ft | 12 kts | 84° |
| 2026-05-06 22:21 | 33.93863 | -118.40156 | 125 ft | 13 kts | 84° |
| 2026-05-06 22:21 | 33.93874 | -118.40042 | 132 ft | 14 kts | 83° |
| 2026-05-06 22:21 | 33.93888 | -118.39918 | 132 ft | 15 kts | 83° |
| 2026-05-06 22:21 | 33.93901 | -118.39786 | 125 ft | 17 kts | 83° |
| 2026-05-06 22:22 | 33.93915 | -118.39644 | 132 ft | 18 kts | 83° |
| 2026-05-06 22:22 | 33.93931 | -118.39491 | 132 ft | 19 kts | 83° |
| 2026-05-06 22:22 | 33.93947 | -118.39334 | 132 ft | 19 kts | 83° |
| 2026-05-06 22:22 | 33.93964 | -118.39171 | 125 ft | 20 kts | 84° |
| 2026-05-06 22:23 | 33.93981 | -118.39009 | 132 ft | 20 kts | 83° |
| 2026-05-06 22:23 | 33.93998 | -118.38841 | 124 ft | 21 kts | 83° |
| 2026-05-06 22:23 | 33.94016 | -118.38669 | 128 ft | 21 kts | 83° |
| 2026-05-06 22:23 | 33.94034 | -118.38490 | 130 ft | 22 kts | 83° |
| 2026-05-06 22:24 | 33.94049 | -118.38340 | 130 ft | 17 kts | 83° |
| 2026-05-06 22:24 | 33.94063 | -118.38196 | 132 ft | 17 kts | 83° |
| 2026-05-06 22:24 | 33.94075 | -118.38079 | 132 ft | 6 kts | 82° |
| 2026-05-06 22:24 | 33.94075 | -118.38042 | 132 ft | 0 kts | 103° |
| 2026-05-06 22:26 | 33.94061 | -118.38016 | 126 ft | 4 kts | 147° |
| 2026-05-06 22:26 | 33.94031 | -118.38002 | 129 ft | 5 kts | 166° |
| 2026-05-06 22:26 | 33.94002 | -118.38013 | 125 ft | 4 kts | 211° |
| 2026-05-06 22:26 | 33.93990 | -118.38036 | 126 ft | 3 kts | 245° |
| 2026-05-06 22:27 | 33.93984 | -118.38062 | 124 ft | 4 kts | 256° |
| 2026-05-06 22:27 | 33.93976 | -118.38104 | 132 ft | 12 kts | 257° |
| 2026-05-06 22:27 | 33.93941 | -118.38417 | 124 ft | 66 kts | 264° |
| 2026-05-06 22:27 | 33.93861 | -118.39176 | 129 ft | 116 kts | 265° |
| 2026-05-06 22:28 | 33.93750 | -118.40327 | 131 ft | 159 kts | 262° |
| 2026-05-06 22:28 | 33.93580 | -118.41740 | 450 ft | 175 kts | 259° |
| 2026-05-06 22:28 | 33.93298 | -118.43210 | 952 ft | 186 kts | 254° |
| 2026-05-06 22:28 | 33.92913 | -118.44740 | 1519 ft | 193 kts | 253° |
| 2026-05-06 22:29 | 33.92479 | -118.46279 | 2050 ft | 196 kts | 252° |
| 2026-05-06 22:29 | 33.92001 | -118.47786 | 2664 ft | 190 kts | 246° |
| 2026-05-06 22:29 | 33.91172 | -118.48961 | 3432 ft | 178 kts | 215° |
| 2026-05-06 22:29 | 33.90071 | -118.49568 | 3866 ft | 174 kts | 213° |
| 2026-05-06 22:30 | 33.89278 | -118.50604 | 4237 ft | 166 kts | 239° |
| 2026-05-06 22:30 | 33.88643 | -118.51830 | 4438 ft | 179 kts | 241° |
| 2026-05-06 22:30 | 33.88192 | -118.52700 | 4543 ft | 191 kts | 239° |
| 2026-05-06 22:30 | 33.87397 | -118.54071 | 4710 ft | 208 kts | 233° |
| 2026-05-06 22:31 | 33.86412 | -118.55423 | 4942 ft | 226 kts | 220° |
| 2026-05-06 22:31 | 33.84887 | -118.56151 | 5002 ft | 253 kts | 183° |
| 2026-05-06 22:31 | 33.82457 | -118.55677 | 4975 ft | 277 kts | 165° |
| 2026-05-06 22:31 | 33.80575 | -118.55096 | 4972 ft | 279 kts | 166° |
| 2026-05-06 22:32 | 33.79310 | -118.54723 | 4969 ft | 279 kts | 166° |
| 2026-05-06 22:32 | 33.77421 | -118.54188 | 4974 ft | 279 kts | 167° |
| 2026-05-06 22:32 | 33.75557 | -118.53672 | 5006 ft | 279 kts | 167° |
| 2026-05-06 22:32 | 33.73648 | -118.53150 | 5259 ft | 281 kts | 167° |
| 2026-05-06 22:33 | 33.71748 | -118.52568 | 5802 ft | 283 kts | 160° |
| 2026-05-06 22:33 | 33.70057 | -118.51405 | 6498 ft | 282 kts | 136° |
| 2026-05-06 22:33 | 33.68922 | -118.49515 | 7161 ft | 278 kts | 111° |
| 2026-05-06 22:33 | 33.68243 | -118.47343 | 7858 ft | 278 kts | 106° |
| 2026-05-06 22:34 | 33.67622 | -118.45139 | 8557 ft | 280 kts | 106° |
| 2026-05-06 22:34 | 33.66989 | -118.42932 | 9260 ft | 282 kts | 106° |
| 2026-05-06 22:34 | 33.66339 | -118.40695 | 9958 ft | 284 kts | 106° |
| 2026-05-06 22:34 | 33.65678 | -118.38442 | 10414 ft | 295 kts | 106° |
| 2026-05-06 22:35 | 33.64971 | -118.36034 | 10701 ft | 311 kts | 107° |
| 2026-05-06 22:35 | 33.64458 | -118.33463 | 10982 ft | 324 kts | 92° |
| 2026-05-06 22:35 | 33.64411 | -118.30704 | 11316 ft | 336 kts | 87° |
| 2026-05-06 22:35 | 33.64438 | -118.27886 | 11618 ft | 350 kts | 87° |
| 2026-05-06 22:36 | 33.64455 | -118.24858 | 11920 ft | 363 kts | 88° |
| 2026-05-06 22:36 | 33.64464 | -118.21832 | 12240 ft | 374 kts | 88° |
| 2026-05-06 22:36 | 33.64467 | -118.18704 | 12676 ft | 381 kts | 88° |
| 2026-05-06 22:36 | 33.64468 | -118.15429 | 13161 ft | 386 kts | 88° |
| 2026-05-06 22:37 | 33.64468 | -118.12227 | 13648 ft | 391 kts | 88° |
| 2026-05-06 22:37 | 33.64468 | -118.08980 | 14092 ft | 396 kts | 88° |
| 2026-05-06 22:37 | 33.64465 | -118.05650 | 14592 ft | 398 kts | 88° |
| 2026-05-06 22:37 | 33.64461 | -118.02303 | 15146 ft | 401 kts | 88° |
| 2026-05-06 22:38 | 33.64456 | -117.98950 | 15673 ft | 404 kts | 88° |
| 2026-05-06 22:38 | 33.64451 | -117.95589 | 16203 ft | 406 kts | 88° |
| 2026-05-06 22:38 | 33.64444 | -117.92191 | 16800 ft | 408 kts | 88° |
| 2026-05-06 22:38 | 33.64435 | -117.88785 | 17335 ft | 410 kts | 88° |
| 2026-05-06 22:39 | 33.64427 | -117.85348 | 17857 ft | 414 kts | 88° |
| 2026-05-06 22:39 | 33.64422 | -117.81882 | 18382 ft | 417 kts | 88° |
| 2026-05-06 22:39 | 33.64653 | -117.78426 | 18842 ft | 417 kts | 78° |
| 2026-05-06 22:39 | 33.65263 | -117.75018 | 19348 ft | 418 kts | 75° |
| 2026-05-06 22:40 | 33.65940 | -117.71610 | 19820 ft | 421 kts | 75° |
| 2026-05-06 22:40 | 33.66599 | -117.68216 | 20310 ft | 424 kts | 75° |
| 2026-05-06 22:40 | 33.67267 | -117.64742 | 20811 ft | 427 kts | 75° |
| 2026-05-06 22:40 | 33.67947 | -117.61204 | 21305 ft | 430 kts | 75° |
| 2026-05-06 22:41 | 33.69296 | -117.54159 | 22238 ft | 437 kts | 75° |
| 2026-05-06 22:41 | 33.69969 | -117.50640 | 22710 ft | 440 kts | 75° |
| 2026-05-06 22:41 | 33.70659 | -117.47023 | 23210 ft | 443 kts | 75° |
| 2026-05-06 22:42 | 33.71349 | -117.43398 | 23691 ft | 446 kts | 75° |
| 2026-05-06 22:42 | 33.72026 | -117.39838 | 24070 ft | 449 kts | 75° |
| 2026-05-06 22:42 | 33.72741 | -117.36070 | 24449 ft | 452 kts | 75° |
| 2026-05-06 22:42 | 33.73442 | -117.32370 | 24850 ft | 455 kts | 75° |
| 2026-05-06 22:43 | 33.74144 | -117.28658 | 25226 ft | 459 kts | 75° |
| 2026-05-06 22:43 | 33.74809 | -117.24938 | 25580 ft | 463 kts | 78° |
| 2026-05-06 22:43 | 33.75097 | -117.21044 | 25948 ft | 468 kts | 88° |
| 2026-05-06 22:43 | 33.75048 | -117.17124 | 26326 ft | 472 kts | 90° |
| 2026-05-06 22:44 | 33.74959 | -117.13208 | 26670 ft | 476 kts | 90° |
| 2026-05-06 22:44 | 33.74868 | -117.09182 | 27006 ft | 479 kts | 90° |
| 2026-05-06 22:44 | 33.74780 | -117.05168 | 27350 ft | 482 kts | 90° |
| 2026-05-06 22:44 | 33.74691 | -117.01114 | 27700 ft | 485 kts | 90° |
| 2026-05-06 22:45 | 33.74604 | -116.97101 | 28008 ft | 489 kts | 90° |
| 2026-05-06 22:45 | 33.74512 | -116.93007 | 28287 ft | 493 kts | 90° |
| 2026-05-06 22:45 | 33.74420 | -116.88884 | 28593 ft | 497 kts | 90° |
| 2026-05-06 22:45 | 33.74328 | -116.84716 | 28913 ft | 500 kts | 90° |
| 2026-05-06 22:46 | 33.74232 | -116.80518 | 29149 ft | 504 kts | 90° |
| 2026-05-06 22:46 | 33.74136 | -116.76259 | 29404 ft | 508 kts | 90° |
| 2026-05-06 22:46 | 33.74037 | -116.72023 | 29665 ft | 510 kts | 90° |
| 2026-05-06 22:46 | 33.73935 | -116.67792 | 30010 ft | 512 kts | 90° |
| 2026-05-06 22:47 | 33.73833 | -116.63521 | 30308 ft | 513 kts | 91° |
| 2026-05-06 22:47 | 33.73729 | -116.59235 | 30598 ft | 513 kts | 91° |
| 2026-05-06 22:47 | 33.73622 | -116.54960 | 30926 ft | 513 kts | 91° |
| 2026-05-06 22:47 | 33.73514 | -116.50674 | 31257 ft | 513 kts | 91° |
| 2026-05-06 22:48 | 33.73405 | -116.46393 | 31592 ft | 513 kts | 91° |
| 2026-05-06 22:48 | 33.73295 | -116.42112 | 31859 ft | 513 kts | 91° |
| 2026-05-06 22:48 | 33.73182 | -116.37824 | 32143 ft | 513 kts | 91° |
| 2026-05-06 22:48 | 33.73069 | -116.33542 | 32436 ft | 513 kts | 91° |
| 2026-05-06 22:49 | 33.72954 | -116.29264 | 32627 ft | 515 kts | 92° |
| 2026-05-06 22:49 | 33.72838 | -116.25003 | 32826 ft | 517 kts | 92° |
| 2026-05-06 22:49 | 33.72717 | -116.20633 | 33085 ft | 517 kts | 92° |
| 2026-05-06 22:49 | 33.72598 | -116.16360 | 33336 ft | 517 kts | 92° |
| 2026-05-06 22:50 | 33.72486 | -116.12069 | 33561 ft | 519 kts | 91° |
| 2026-05-06 22:50 | 33.72658 | -116.07754 | 33721 ft | 521 kts | 82° |
| 2026-05-06 22:50 | 33.73419 | -116.03457 | 33972 ft | 520 kts | 73° |
| 2026-05-06 22:50 | 33.74477 | -115.99302 | 34178 ft | 520 kts | 71° |
| 2026-05-06 22:51 | 33.75601 | -115.95227 | 34348 ft | 521 kts | 71° |
| 2026-05-06 22:51 | 33.76777 | -115.91093 | 34491 ft | 523 kts | 70° |
| 2026-05-06 22:51 | 33.77955 | -115.86971 | 34702 ft | 522 kts | 71° |
| 2026-05-06 22:51 | 33.79143 | -115.82779 | 34915 ft | 522 kts | 71° |
| 2026-05-06 22:52 | 33.80301 | -115.78654 | 35069 ft | 524 kts | 71° |
| 2026-05-06 22:52 | 33.81450 | -115.74520 | 35186 ft | 525 kts | 71° |
| 2026-05-06 22:52 | 33.82610 | -115.70321 | 35370 ft | 525 kts | 71° |
| 2026-05-06 22:52 | 33.83744 | -115.66198 | 35575 ft | 525 kts | 71° |
| 2026-05-06 22:53 | 33.84902 | -115.61977 | 35693 ft | 526 kts | 71° |
| 2026-05-06 22:53 | 33.86034 | -115.57845 | 35809 ft | 527 kts | 71° |
| 2026-05-06 22:53 | 33.87179 | -115.53661 | 35973 ft | 528 kts | 72° |
| 2026-05-06 22:53 | 33.88325 | -115.49465 | 36137 ft | 527 kts | 72° |
| 2026-05-06 22:54 | 33.89462 | -115.45304 | 36276 ft | 528 kts | 72° |
| 2026-05-06 22:54 | 33.91770 | -115.36830 | 36514 ft | 530 kts | 72° |
| 2026-05-06 22:54 | 33.92914 | -115.32622 | 36686 ft | 530 kts | 72° |
| 2026-05-06 22:55 | 33.94058 | -115.28408 | 36783 ft | 531 kts | 72° |
| 2026-05-06 22:55 | 33.96354 | -115.19929 | 37021 ft | 532 kts | 72° |
| 2026-05-06 22:55 | 33.97484 | -115.15744 | 37168 ft | 532 kts | 72° |
| 2026-05-06 22:56 | 33.98629 | -115.11501 | 37301 ft | 533 kts | 72° |
| 2026-05-06 22:56 | 34.00917 | -115.02998 | 37478 ft | 534 kts | 72° |
| 2026-05-06 22:56 | 34.02057 | -114.98754 | 37636 ft | 533 kts | 72° |
| 2026-05-06 22:57 | 34.03201 | -114.94486 | 37723 ft | 535 kts | 72° |
| 2026-05-06 22:57 | 34.05478 | -114.85973 | 37875 ft | 536 kts | 72° |
| 2026-05-06 22:58 | 34.07749 | -114.77455 | 37960 ft | 536 kts | 72° |
| 2026-05-06 22:58 | 34.10064 | -114.68898 | 37947 ft | 537 kts | 69° |
| 2026-05-06 22:59 | 34.12875 | -114.60524 | 37946 ft | 538 kts | 68° |
| 2026-05-06 22:59 | 34.15771 | -114.52192 | 37944 ft | 539 kts | 67° |
| 2026-05-06 23:00 | 34.18676 | -114.43861 | 37944 ft | 540 kts | 68° |
| 2026-05-06 23:00 | 34.21570 | -114.35523 | 37941 ft | 541 kts | 68° |
| 2026-05-06 23:01 | 34.24472 | -114.27119 | 37935 ft | 539 kts | 68° |
| 2026-05-06 23:01 | 34.27358 | -114.18735 | 37947 ft | 541 kts | 68° |
| 2026-05-06 23:02 | 34.30251 | -114.10322 | 37942 ft | 543 kts | 68° |
| 2026-05-06 23:02 | 34.33124 | -114.01939 | 37947 ft | 542 kts | 68° |
| 2026-05-06 23:03 | 34.35991 | -113.93549 | 37949 ft | 542 kts | 68° |
| 2026-05-06 23:03 | 34.38857 | -113.85139 | 37950 ft | 541 kts | 68° |
| 2026-05-06 23:04 | 34.41723 | -113.76706 | 37945 ft | 541 kts | 68° |
| 2026-05-06 23:04 | 34.44578 | -113.68286 | 37950 ft | 541 kts | 68° |
| 2026-05-06 23:05 | 34.47412 | -113.59902 | 37948 ft | 540 kts | 68° |
| 2026-05-06 23:05 | 34.50251 | -113.51480 | 37951 ft | 540 kts | 68° |
| 2026-05-06 23:06 | 34.53086 | -113.43048 | 37951 ft | 540 kts | 68° |
| 2026-05-06 23:06 | 34.55913 | -113.34617 | 37951 ft | 540 kts | 69° |
| 2026-05-06 23:07 | 34.58732 | -113.26185 | 37952 ft | 540 kts | 69° |
| 2026-05-06 23:07 | 34.61534 | -113.17783 | 37957 ft | 539 kts | 69° |
| 2026-05-06 23:08 | 34.64340 | -113.09346 | 37958 ft | 539 kts | 69° |
| 2026-05-06 23:08 | 34.67136 | -113.00916 | 37952 ft | 539 kts | 69° |
| 2026-05-06 23:09 | 34.69928 | -112.92475 | 37960 ft | 539 kts | 69° |
| 2026-05-06 23:09 | 34.72701 | -112.84069 | 37960 ft | 538 kts | 69° |
| 2026-05-06 23:10 | 34.75528 | -112.75471 | 37987 ft | 538 kts | 69° |
| 2026-05-06 23:10 | 34.78299 | -112.67025 | 38009 ft | 538 kts | 69° |
| 2026-05-06 23:11 | 34.81068 | -112.58560 | 38026 ft | 538 kts | 69° |
| 2026-05-06 23:11 | 34.83823 | -112.50112 | 38041 ft | 537 kts | 69° |
| 2026-05-06 23:12 | 34.86557 | -112.41708 | 38031 ft | 537 kts | 69° |
| 2026-05-06 23:12 | 34.89296 | -112.33264 | 38017 ft | 537 kts | 69° |
| 2026-05-06 23:13 | 34.92034 | -112.24798 | 37988 ft | 536 kts | 69° |
| 2026-05-06 23:13 | 34.94764 | -112.16333 | 37978 ft | 536 kts | 69° |
| 2026-05-06 23:14 | 34.97443 | -112.08007 | 38004 ft | 536 kts | 69° |
| 2026-05-06 23:14 | 35.00380 | -111.99571 | 38031 ft | 536 kts | 60° |
| 2026-05-06 23:15 | 35.04190 | -111.91764 | 38034 ft | 536 kts | 58° |
| 2026-05-06 23:15 | 35.08155 | -111.84054 | 38127 ft | 536 kts | 57° |
| 2026-05-06 23:16 | 35.12070 | -111.76449 | 38074 ft | 516 kts | 56° |
| 2026-05-06 23:16 | 35.13929 | -111.72814 | 38159 ft | 495 kts | 56° |
| 2026-05-06 23:16 | 35.15710 | -111.69324 | 38159 ft | 480 kts | 56° |
| 2026-05-06 23:17 | 35.19208 | -111.62472 | 38165 ft | 471 kts | 56° |
| 2026-05-06 23:17 | 35.22681 | -111.55659 | 38142 ft | 474 kts | 56° |
| 2026-05-06 23:18 | 35.26157 | -111.48817 | 38092 ft | 474 kts | 56° |
| 2026-05-06 23:18 | 35.29596 | -111.42027 | 38038 ft | 474 kts | 56° |
| 2026-05-06 23:19 | 35.33080 | -111.35134 | 37974 ft | 474 kts | 56° |
| 2026-05-06 23:19 | 35.36552 | -111.28255 | 37932 ft | 474 kts | 56° |
| 2026-05-06 23:20 | 35.40020 | -111.21369 | 37920 ft | 474 kts | 56° |
| 2026-05-06 23:20 | 35.43484 | -111.14476 | 37910 ft | 474 kts | 56° |
| 2026-05-06 23:21 | 35.46934 | -111.07595 | 37897 ft | 475 kts | 56° |
| 2026-05-06 23:21 | 35.50375 | -111.00719 | 37890 ft | 475 kts | 56° |
| 2026-05-06 23:22 | 35.53829 | -110.93806 | 37890 ft | 476 kts | 56° |
| 2026-05-06 23:22 | 35.57289 | -110.86866 | 37888 ft | 476 kts | 56° |
| 2026-05-06 23:23 | 35.60739 | -110.79931 | 37890 ft | 477 kts | 56° |
| 2026-05-06 23:23 | 35.64178 | -110.73007 | 37886 ft | 477 kts | 56° |
| 2026-05-06 23:24 | 35.67624 | -110.66052 | 37893 ft | 478 kts | 56° |
| 2026-05-06 23:24 | 35.71096 | -110.59032 | 37893 ft | 478 kts | 56° |
| 2026-05-06 23:25 | 35.74517 | -110.52100 | 37898 ft | 479 kts | 56° |
| 2026-05-06 23:25 | 35.77974 | -110.45082 | 37902 ft | 479 kts | 56° |
| 2026-05-06 23:26 | 35.81436 | -110.38040 | 37905 ft | 479 kts | 56° |
| 2026-05-06 23:26 | 35.84882 | -110.31016 | 37905 ft | 480 kts | 56° |
| 2026-05-06 23:27 | 35.88332 | -110.23968 | 37910 ft | 480 kts | 56° |
| 2026-05-06 23:27 | 35.91777 | -110.16915 | 37914 ft | 481 kts | 56° |
| 2026-05-06 23:28 | 35.95205 | -110.09883 | 37919 ft | 481 kts | 56° |
| 2026-05-06 23:28 | 35.98653 | -110.02798 | 37917 ft | 482 kts | 56° |
| 2026-05-06 23:29 | 36.02015 | -109.95633 | 37919 ft | 484 kts | 60° |
| 2026-05-06 23:29 | 36.04920 | -109.88176 | 37919 ft | 485 kts | 62° |
| 2026-05-06 23:30 | 36.07777 | -109.80614 | 37924 ft | 486 kts | 62° |
| 2026-05-06 23:30 | 36.10708 | -109.73076 | 37914 ft | 486 kts | 61° |
| 2026-05-06 23:31 | 36.13673 | -109.65570 | 37936 ft | 487 kts | 61° |
| 2026-05-06 23:31 | 36.16654 | -109.58034 | 37931 ft | 487 kts | 61° |
| 2026-05-06 23:32 | 36.19604 | -109.50548 | 37938 ft | 488 kts | 61° |
| 2026-05-06 23:32 | 36.22574 | -109.42986 | 37946 ft | 489 kts | 61° |
| 2026-05-06 23:33 | 36.25542 | -109.35411 | 37949 ft | 489 kts | 61° |
| 2026-05-06 23:33 | 36.28497 | -109.27850 | 37961 ft | 490 kts | 61° |
| 2026-05-06 23:34 | 36.31466 | -109.20233 | 37977 ft | 491 kts | 61° |
| 2026-05-06 23:34 | 36.34439 | -109.12590 | 37975 ft | 492 kts | 61° |
| 2026-05-06 23:35 | 36.37412 | -109.04932 | 37979 ft | 493 kts | 61° |
| 2026-05-06 23:35 | 36.40380 | -108.97267 | 37976 ft | 494 kts | 62° |
| 2026-05-06 23:36 | 36.43334 | -108.89616 | 37974 ft | 494 kts | 62° |
| 2026-05-06 23:36 | 36.46301 | -108.81914 | 37976 ft | 495 kts | 62° |
| 2026-05-06 23:37 | 36.49266 | -108.74201 | 37973 ft | 495 kts | 62° |
| 2026-05-06 23:37 | 36.52233 | -108.66463 | 37977 ft | 496 kts | 62° |
| 2026-05-06 23:38 | 36.55199 | -108.58708 | 37978 ft | 496 kts | 62° |
| 2026-05-06 23:38 | 36.58150 | -108.50972 | 38012 ft | 496 kts | 62° |
| 2026-05-06 23:39 | 36.61105 | -108.43206 | 38038 ft | 497 kts | 62° |
| 2026-05-06 23:39 | 36.64029 | -108.35503 | 38058 ft | 497 kts | 62° |
| 2026-05-06 23:40 | 36.66994 | -108.27675 | 38076 ft | 497 kts | 62° |
| 2026-05-06 23:40 | 36.69937 | -108.19886 | 38078 ft | 498 kts | 62° |
| 2026-05-06 23:41 | 36.72883 | -108.12067 | 38075 ft | 499 kts | 62° |
| 2026-05-06 23:41 | 36.75810 | -108.04279 | 38048 ft | 499 kts | 62° |
| 2026-05-06 23:42 | 36.78756 | -107.96423 | 38026 ft | 500 kts | 62° |
| 2026-05-06 23:42 | 36.81699 | -107.88551 | 37981 ft | 500 kts | 62° |
| 2026-05-06 23:43 | 36.84632 | -107.80690 | 37991 ft | 501 kts | 62° |
| 2026-05-06 23:43 | 36.87574 | -107.72784 | 37987 ft | 501 kts | 62° |
| 2026-05-06 23:44 | 36.90481 | -107.64953 | 37985 ft | 501 kts | 62° |
| 2026-05-06 23:44 | 36.93407 | -107.57047 | 37986 ft | 501 kts | 62° |
| 2026-05-06 23:45 | 36.96343 | -107.49097 | 37969 ft | 502 kts | 62° |
| 2026-05-06 23:45 | 36.99245 | -107.41220 | 37949 ft | 502 kts | 62° |
| 2026-05-06 23:46 | 37.02181 | -107.33229 | 37937 ft | 502 kts | 63° |
| 2026-05-06 23:46 | 37.05078 | -107.25322 | 37980 ft | 502 kts | 63° |
| 2026-05-06 23:47 | 37.07982 | -107.17376 | 38023 ft | 503 kts | 63° |
| 2026-05-06 23:47 | 37.10887 | -107.09408 | 38055 ft | 504 kts | 63° |
| 2026-05-06 23:48 | 37.13796 | -107.01408 | 38080 ft | 505 kts | 63° |
| 2026-05-06 23:48 | 37.16695 | -106.93416 | 38081 ft | 505 kts | 63° |
| 2026-05-06 23:49 | 37.19604 | -106.85373 | 38063 ft | 506 kts | 63° |
| 2026-05-06 23:49 | 37.22503 | -106.77336 | 38048 ft | 507 kts | 63° |
| 2026-05-06 23:50 | 37.25390 | -106.69312 | 38023 ft | 507 kts | 63° |
| 2026-05-06 23:50 | 37.29741 | -106.57178 | 38025 ft | 508 kts | 63° |
| 2026-05-06 23:51 | 37.32636 | -106.49077 | 38036 ft | 509 kts | 63° |
| 2026-05-06 23:51 | 37.35530 | -106.40955 | 38044 ft | 510 kts | 63° |
| 2026-05-06 23:52 | 37.38407 | -106.32863 | 38058 ft | 510 kts | 63° |
| 2026-05-06 23:52 | 37.40826 | -106.26044 | 38069 ft | 511 kts | 63° |
| 2026-05-06 23:53 | 37.44191 | -106.16531 | 38093 ft | 512 kts | 63° |
| 2026-05-06 23:53 | 37.47077 | -106.08343 | 38116 ft | 512 kts | 63° |
| 2026-05-06 23:54 | 37.49940 | -106.00202 | 38129 ft | 513 kts | 63° |
| 2026-05-06 23:54 | 37.52419 | -105.93307 | 38135 ft | 513 kts | 62° |
| 2026-05-06 23:55 | 37.55919 | -105.83855 | 38129 ft | 513 kts | 62° |
| 2026-05-06 23:55 | 37.58935 | -105.75681 | 38121 ft | 514 kts | 62° |
| 2026-05-06 23:56 | 37.61423 | -105.68882 | 38120 ft | 514 kts | 62° |
| 2026-05-06 23:56 | 37.64409 | -105.60689 | 38117 ft | 515 kts | 63° |
| 2026-05-06 23:57 | 37.67386 | -105.52490 | 38135 ft | 515 kts | 63° |
| 2026-05-06 23:57 | 37.70377 | -105.44236 | 38157 ft | 516 kts | 63° |
| 2026-05-06 23:58 | 37.73338 | -105.36044 | 38173 ft | 517 kts | 63° |
| 2026-05-06 23:58 | 37.76321 | -105.27765 | 38205 ft | 518 kts | 63° |
| 2026-05-06 23:59 | 37.79320 | -105.19423 | 38228 ft | 518 kts | 63° |
| 2026-05-06 23:59 | 37.82292 | -105.11130 | 38242 ft | 519 kts | 63° |
| 2026-05-07 00:00 | 37.85237 | -105.02893 | 38251 ft | 520 kts | 63° |
| 2026-05-07 00:00 | 37.88231 | -104.94494 | 38262 ft | 520 kts | 63° |
| 2026-05-07 00:01 | 37.91198 | -104.86147 | 38263 ft | 521 kts | 63° |
| 2026-05-07 00:01 | 37.94177 | -104.77741 | 38266 ft | 522 kts | 63° |
| 2026-05-07 00:02 | 37.97123 | -104.69408 | 38265 ft | 523 kts | 63° |
| 2026-05-07 00:02 | 38.00092 | -104.60983 | 38248 ft | 523 kts | 63° |
| 2026-05-07 00:03 | 38.03058 | -104.52543 | 38235 ft | 524 kts | 63° |
| 2026-05-07 00:03 | 38.06019 | -104.44095 | 38227 ft | 524 kts | 63° |
| 2026-05-07 00:04 | 38.08995 | -104.35579 | 38216 ft | 525 kts | 63° |
| 2026-05-07 00:04 | 38.11954 | -104.27088 | 38222 ft | 525 kts | 63° |
| 2026-05-07 00:05 | 38.14909 | -104.18585 | 38226 ft | 526 kts | 63° |
| 2026-05-07 00:05 | 38.17838 | -104.10131 | 38231 ft | 526 kts | 63° |
| 2026-05-07 00:06 | 38.20780 | -104.01614 | 38228 ft | 526 kts | 63° |
| 2026-05-07 00:06 | 38.23716 | -103.93090 | 38221 ft | 527 kts | 63° |
| 2026-05-07 00:07 | 38.26656 | -103.84530 | 38217 ft | 527 kts | 64° |
| 2026-05-07 00:07 | 38.29586 | -103.75974 | 38203 ft | 528 kts | 64° |
| 2026-05-07 00:08 | 38.32491 | -103.67467 | 38201 ft | 528 kts | 64° |
| 2026-05-07 00:08 | 38.35419 | -103.58868 | 38192 ft | 529 kts | 64° |
| 2026-05-07 00:09 | 38.38337 | -103.50269 | 38190 ft | 529 kts | 64° |
| 2026-05-07 00:09 | 38.41258 | -103.41640 | 38187 ft | 529 kts | 64° |
| 2026-05-07 00:10 | 38.44147 | -103.33078 | 38175 ft | 530 kts | 64° |
| 2026-05-07 00:10 | 38.47048 | -103.24454 | 38169 ft | 530 kts | 64° |
| 2026-05-07 00:11 | 38.49956 | -103.15787 | 38173 ft | 530 kts | 64° |
| 2026-05-07 00:11 | 38.52850 | -103.07132 | 38177 ft | 531 kts | 64° |
| 2026-05-07 00:12 | 38.55747 | -102.98444 | 38176 ft | 531 kts | 64° |
| 2026-05-07 00:12 | 38.58635 | -102.89757 | 38172 ft | 532 kts | 64° |
| 2026-05-07 00:13 | 38.61504 | -102.81099 | 38170 ft | 532 kts | 64° |
| 2026-05-07 00:13 | 38.64401 | -102.72334 | 38169 ft | 532 kts | 64° |
| 2026-05-07 00:14 | 38.67262 | -102.63647 | 38171 ft | 533 kts | 64° |
| 2026-05-07 00:14 | 38.70133 | -102.54903 | 38169 ft | 533 kts | 64° |
| 2026-05-07 00:15 | 38.73002 | -102.46142 | 38168 ft | 534 kts | 64° |
| 2026-05-07 00:15 | 38.75861 | -102.37381 | 38168 ft | 534 kts | 65° |
| 2026-05-07 00:16 | 38.78714 | -102.28612 | 38169 ft | 534 kts | 65° |
| 2026-05-07 00:16 | 38.81574 | -102.19794 | 38171 ft | 535 kts | 65° |
| 2026-05-07 00:17 | 38.84405 | -102.11038 | 38169 ft | 535 kts | 65° |
| 2026-05-07 00:17 | 38.87239 | -102.02246 | 38171 ft | 535 kts | 65° |
| 2026-05-07 00:18 | 38.90088 | -101.93383 | 38169 ft | 536 kts | 65° |
| 2026-05-07 00:18 | 38.92921 | -101.84538 | 38166 ft | 536 kts | 65° |
| 2026-05-07 00:19 | 38.95733 | -101.75733 | 38167 ft | 536 kts | 65° |
| 2026-05-07 00:19 | 38.98555 | -101.66865 | 38168 ft | 537 kts | 65° |
| 2026-05-07 00:20 | 39.01373 | -101.57985 | 38170 ft | 537 kts | 65° |
| 2026-05-07 00:20 | 39.04185 | -101.49096 | 38169 ft | 537 kts | 65° |
| 2026-05-07 00:21 | 39.06996 | -101.40180 | 38171 ft | 538 kts | 65° |
| 2026-05-07 00:21 | 39.09806 | -101.31236 | 38173 ft | 538 kts | 65° |
| 2026-05-07 00:22 | 39.12588 | -101.22354 | 38170 ft | 539 kts | 65° |
| 2026-05-07 00:22 | 39.15380 | -101.13413 | 38170 ft | 539 kts | 66° |
| 2026-05-07 00:23 | 39.18172 | -101.04443 | 38168 ft | 539 kts | 66° |
| 2026-05-07 00:23 | 39.20961 | -100.95452 | 38168 ft | 540 kts | 66° |
| 2026-05-07 00:24 | 39.23724 | -100.86515 | 38165 ft | 540 kts | 66° |
| 2026-05-07 00:24 | 39.26503 | -100.77499 | 38174 ft | 540 kts | 66° |
| 2026-05-07 00:25 | 39.29271 | -100.68487 | 38163 ft | 541 kts | 66° |
| 2026-05-07 00:25 | 39.32038 | -100.59452 | 38168 ft | 541 kts | 66° |
| 2026-05-07 00:26 | 39.34803 | -100.50391 | 38169 ft | 541 kts | 66° |
| 2026-05-07 00:26 | 39.37534 | -100.41412 | 38170 ft | 542 kts | 66° |
| 2026-05-07 00:27 | 39.40290 | -100.32319 | 38168 ft | 542 kts | 66° |
| 2026-05-07 00:27 | 39.43027 | -100.23258 | 38166 ft | 543 kts | 66° |
| 2026-05-07 00:28 | 39.45762 | -100.14175 | 38163 ft | 543 kts | 66° |
| 2026-05-07 00:28 | 39.48525 | -100.04970 | 38160 ft | 544 kts | 66° |
| 2026-05-07 00:29 | 39.51309 | -99.95865 | 38158 ft | 544 kts | 64° |
| 2026-05-07 00:30 | 39.57941 | -99.78300 | 38162 ft | 543 kts | 61° |
| 2026-05-07 00:30 | 39.61247 | -99.69465 | 38162 ft | 544 kts | 62° |
| 2026-05-07 00:31 | 39.64469 | -99.60667 | 38150 ft | 544 kts | 62° |
| 2026-05-07 00:31 | 39.67700 | -99.51781 | 38149 ft | 545 kts | 62° |
| 2026-05-07 00:32 | 39.70929 | -99.42876 | 38143 ft | 545 kts | 62° |
| 2026-05-07 00:32 | 39.74158 | -99.33955 | 38135 ft | 546 kts | 62° |
| 2026-05-07 00:33 | 39.77363 | -99.25077 | 38139 ft | 546 kts | 63° |
| 2026-05-07 00:33 | 39.80585 | -99.16123 | 38147 ft | 547 kts | 63° |
| 2026-05-07 00:34 | 39.83794 | -99.07176 | 38142 ft | 547 kts | 63° |
| 2026-05-07 00:34 | 39.87005 | -98.98198 | 38153 ft | 547 kts | 63° |
| 2026-05-07 00:35 | 39.90220 | -98.89180 | 38144 ft | 548 kts | 63° |
| 2026-05-07 00:35 | 39.93421 | -98.80174 | 38145 ft | 548 kts | 63° |
| 2026-05-07 00:36 | 39.96618 | -98.71151 | 38138 ft | 548 kts | 63° |
| 2026-05-07 00:36 | 39.99792 | -98.62165 | 38135 ft | 549 kts | 63° |
| 2026-05-07 00:37 | 40.02982 | -98.53106 | 38137 ft | 549 kts | 63° |
| 2026-05-07 00:37 | 40.06168 | -98.44027 | 38129 ft | 549 kts | 63° |
| 2026-05-07 00:38 | 40.09321 | -98.35017 | 38122 ft | 550 kts | 63° |
| 2026-05-07 00:38 | 40.12494 | -98.25918 | 38122 ft | 550 kts | 63° |
| 2026-05-07 00:39 | 40.15672 | -98.16780 | 38115 ft | 551 kts | 63° |
| 2026-05-07 00:39 | 40.18809 | -98.07727 | 38111 ft | 551 kts | 64° |
| 2026-05-07 00:40 | 40.21972 | -97.98573 | 38108 ft | 552 kts | 64° |
| 2026-05-07 00:40 | 40.25124 | -97.89419 | 38107 ft | 552 kts | 64° |
| 2026-05-07 00:41 | 40.28271 | -97.80249 | 38105 ft | 552 kts | 64° |
| 2026-05-07 00:41 | 40.31416 | -97.71057 | 38101 ft | 553 kts | 64° |
| 2026-05-07 00:42 | 40.34535 | -97.61912 | 38102 ft | 553 kts | 64° |
| 2026-05-07 00:42 | 40.37662 | -97.52712 | 38100 ft | 553 kts | 64° |
| 2026-05-07 00:43 | 40.40794 | -97.43469 | 38099 ft | 554 kts | 64° |
| 2026-05-07 00:43 | 40.43911 | -97.34241 | 38094 ft | 554 kts | 64° |
| 2026-05-07 00:44 | 40.47027 | -97.24982 | 38094 ft | 555 kts | 64° |
| 2026-05-07 00:44 | 40.50124 | -97.15751 | 38091 ft | 555 kts | 64° |
| 2026-05-07 00:45 | 40.53232 | -97.06457 | 38086 ft | 556 kts | 64° |
| 2026-05-07 00:45 | 40.56340 | -96.97129 | 38089 ft | 556 kts | 64° |
| 2026-05-07 00:46 | 40.59418 | -96.87864 | 38090 ft | 556 kts | 64° |
| 2026-05-07 00:46 | 40.62512 | -96.78518 | 38090 ft | 557 kts | 64° |
| 2026-05-07 00:47 | 40.65594 | -96.69178 | 38090 ft | 557 kts | 64° |
| 2026-05-07 00:47 | 40.68685 | -96.59779 | 38087 ft | 558 kts | 64° |
| 2026-05-07 00:48 | 40.71739 | -96.50457 | 38091 ft | 558 kts | 65° |
| 2026-05-07 00:48 | 40.74825 | -96.41011 | 38089 ft | 559 kts | 65° |
| 2026-05-07 00:49 | 40.77866 | -96.31666 | 38093 ft | 559 kts | 65° |
| 2026-05-07 00:49 | 40.80929 | -96.22225 | 38086 ft | 559 kts | 65° |
| 2026-05-07 00:50 | 40.83992 | -96.12751 | 38085 ft | 559 kts | 65° |
| 2026-05-07 00:50 | 40.87037 | -96.03297 | 38067 ft | 559 kts | 65° |
| 2026-05-07 00:51 | 40.90079 | -95.93822 | 38072 ft | 560 kts | 65° |
| 2026-05-07 00:51 | 40.93111 | -95.84345 | 38074 ft | 560 kts | 65° |
| 2026-05-07 00:52 | 40.96117 | -95.74919 | 38077 ft | 560 kts | 65° |
| 2026-05-07 00:52 | 40.99137 | -95.65411 | 38076 ft | 560 kts | 65° |
| 2026-05-07 00:53 | 41.02151 | -95.55891 | 38081 ft | 561 kts | 65° |
| 2026-05-07 00:53 | 41.05154 | -95.46374 | 38079 ft | 561 kts | 65° |
| 2026-05-07 00:54 | 41.08146 | -95.36856 | 38063 ft | 561 kts | 65° |
| 2026-05-07 00:54 | 41.11141 | -95.27295 | 38064 ft | 562 kts | 65° |
| 2026-05-07 00:55 | 41.14130 | -95.17722 | 38070 ft | 562 kts | 65° |
| 2026-05-07 00:55 | 41.17113 | -95.08131 | 38076 ft | 563 kts | 66° |
| 2026-05-07 00:56 | 41.20088 | -94.98532 | 38077 ft | 563 kts | 66° |
| 2026-05-07 00:56 | 41.23066 | -94.88891 | 38074 ft | 563 kts | 66° |
| 2026-05-07 00:57 | 41.26034 | -94.79243 | 38080 ft | 564 kts | 66° |
| 2026-05-07 00:57 | 41.28966 | -94.69681 | 38082 ft | 564 kts | 66° |
| 2026-05-07 00:58 | 41.31928 | -94.59986 | 38095 ft | 565 kts | 66° |
| 2026-05-07 00:58 | 41.34875 | -94.50302 | 38097 ft | 565 kts | 66° |
| 2026-05-07 00:59 | 41.39284 | -94.35750 | 38099 ft | 565 kts | 66° |
| 2026-05-07 01:00 | 41.42215 | -94.26033 | 38092 ft | 565 kts | 66° |
| 2026-05-07 01:00 | 41.45116 | -94.16380 | 38102 ft | 566 kts | 66° |
| 2026-05-07 01:01 | 41.48026 | -94.06657 | 38097 ft | 566 kts | 66° |
| 2026-05-07 01:01 | 41.50933 | -93.96886 | 38089 ft | 566 kts | 67° |
| 2026-05-07 01:02 | 41.53632 | -93.87016 | 38087 ft | 567 kts | 69° |
| 2026-05-07 01:02 | 41.56244 | -93.77066 | 38076 ft | 567 kts | 69° |
| 2026-05-07 01:03 | 41.58869 | -93.67157 | 38072 ft | 567 kts | 69° |
| 2026-05-07 01:03 | 41.61519 | -93.57225 | 38083 ft | 567 kts | 69° |
| 2026-05-07 01:04 | 41.64153 | -93.47347 | 38084 ft | 567 kts | 69° |
| 2026-05-07 01:04 | 41.66793 | -93.37401 | 38084 ft | 568 kts | 69° |
| 2026-05-07 01:05 | 41.69426 | -93.27436 | 38075 ft | 568 kts | 69° |
| 2026-05-07 01:05 | 41.72048 | -93.17467 | 38068 ft | 568 kts | 69° |
| 2026-05-07 01:06 | 41.74663 | -93.07484 | 38066 ft | 568 kts | 69° |
| 2026-05-07 01:06 | 41.77253 | -92.97556 | 38069 ft | 568 kts | 69° |
| 2026-05-07 01:07 | 41.79853 | -92.87550 | 38085 ft | 568 kts | 69° |
| 2026-05-07 01:07 | 41.82446 | -92.77529 | 38086 ft | 568 kts | 69° |
| 2026-05-07 01:08 | 41.84591 | -92.69204 | 38086 ft | 569 kts | 69° |
| 2026-05-07 01:08 | 41.87593 | -92.57508 | 38089 ft | 569 kts | 69° |
| 2026-05-07 01:09 | 41.90155 | -92.47483 | 38087 ft | 569 kts | 69° |
| 2026-05-07 01:09 | 41.92713 | -92.37429 | 38094 ft | 569 kts | 69° |
| 2026-05-07 01:10 | 41.95241 | -92.27452 | 38078 ft | 569 kts | 69° |
| 2026-05-07 01:10 | 41.97780 | -92.17388 | 38078 ft | 569 kts | 70° |
| 2026-05-07 01:11 | 42.00304 | -92.07340 | 38076 ft | 569 kts | 70° |
| 2026-05-07 01:11 | 42.02413 | -91.98914 | 38075 ft | 569 kts | 70° |
| 2026-05-07 01:12 | 42.04923 | -91.88841 | 38079 ft | 569 kts | 70° |
| 2026-05-07 01:12 | 42.07436 | -91.78718 | 38067 ft | 569 kts | 70° |
| 2026-05-07 01:13 | 42.09931 | -91.68622 | 38070 ft | 569 kts | 70° |
| 2026-05-07 01:13 | 42.12429 | -91.58467 | 38071 ft | 569 kts | 70° |
| 2026-05-07 01:14 | 42.14891 | -91.48415 | 38066 ft | 569 kts | 70° |
| 2026-05-07 01:14 | 42.17365 | -91.38271 | 38055 ft | 569 kts | 70° |
| 2026-05-07 01:15 | 42.19842 | -91.28072 | 38042 ft | 570 kts | 70° |
| 2026-05-07 01:15 | 42.22284 | -91.17971 | 38047 ft | 570 kts | 70° |
| 2026-05-07 01:16 | 42.24729 | -91.07815 | 38045 ft | 570 kts | 70° |
| 2026-05-07 01:16 | 42.27167 | -90.97636 | 38057 ft | 570 kts | 70° |
| 2026-05-07 01:17 | 42.29601 | -90.87435 | 38070 ft | 570 kts | 71° |
| 2026-05-07 01:17 | 42.32027 | -90.77219 | 38064 ft | 571 kts | 71° |
| 2026-05-07 01:18 | 42.34422 | -90.67088 | 38063 ft | 571 kts | 71° |
| 2026-05-07 01:18 | 42.36839 | -90.56819 | 38067 ft | 571 kts | 71° |
| 2026-05-07 01:19 | 42.39233 | -90.46596 | 38071 ft | 571 kts | 71° |
| 2026-05-07 01:19 | 42.41630 | -90.36320 | 38074 ft | 571 kts | 71° |
| 2026-05-07 01:20 | 42.44007 | -90.26081 | 38076 ft | 571 kts | 71° |
| 2026-05-07 01:20 | 42.46386 | -90.15785 | 38073 ft | 571 kts | 71° |
| 2026-05-07 01:21 | 42.48750 | -90.05509 | 38072 ft | 571 kts | 71° |
| 2026-05-07 01:21 | 42.51651 | -89.95581 | 38063 ft | 568 kts | 62° |
| 2026-05-07 01:22 | 42.55133 | -89.85975 | 38058 ft | 568 kts | 60° |
| 2026-05-07 01:22 | 42.58699 | -89.76391 | 38050 ft | 568 kts | 60° |
| 2026-05-07 01:23 | 42.62244 | -89.66806 | 38047 ft | 568 kts | 60° |
| 2026-05-07 01:23 | 42.65762 | -89.57200 | 38047 ft | 568 kts | 61° |
| 2026-05-07 01:24 | 42.69251 | -89.47622 | 38048 ft | 568 kts | 61° |
| 2026-05-07 01:24 | 42.72752 | -89.37978 | 38052 ft | 568 kts | 61° |
| 2026-05-07 01:25 | 42.76238 | -89.28347 | 38055 ft | 568 kts | 61° |
| 2026-05-07 01:25 | 42.79725 | -89.18679 | 38050 ft | 568 kts | 61° |
| 2026-05-07 01:26 | 42.83201 | -89.09009 | 38055 ft | 568 kts | 61° |
| 2026-05-07 01:26 | 42.86661 | -88.99349 | 38045 ft | 568 kts | 61° |
| 2026-05-07 01:27 | 42.90095 | -88.89731 | 38044 ft | 567 kts | 61° |
| 2026-05-07 01:27 | 42.93539 | -88.80050 | 38056 ft | 567 kts | 62° |
| 2026-05-07 01:28 | 42.96978 | -88.70348 | 38039 ft | 567 kts | 62° |
| 2026-05-07 01:28 | 43.00411 | -88.60629 | 38030 ft | 567 kts | 62° |
| 2026-05-07 01:29 | 43.03812 | -88.50969 | 38023 ft | 567 kts | 62° |
| 2026-05-07 01:29 | 43.07217 | -88.41263 | 38022 ft | 567 kts | 62° |
| 2026-05-07 01:30 | 43.10629 | -88.31502 | 38019 ft | 567 kts | 62° |
| 2026-05-07 01:30 | 43.13990 | -88.21734 | 38019 ft | 567 kts | 63° |
| 2026-05-07 01:31 | 43.17178 | -88.11905 | 38029 ft | 567 kts | 64° |
| 2026-05-07 01:31 | 43.20352 | -88.02025 | 38028 ft | 567 kts | 64° |
| 2026-05-07 01:32 | 43.23538 | -87.92165 | 38021 ft | 566 kts | 64° |
| 2026-05-07 01:32 | 43.26736 | -87.82290 | 38024 ft | 566 kts | 64° |
| 2026-05-07 01:33 | 43.29900 | -87.72486 | 38019 ft | 566 kts | 64° |
| 2026-05-07 01:33 | 43.33084 | -87.62582 | 38013 ft | 566 kts | 64° |
| 2026-05-07 01:34 | 43.36253 | -87.52687 | 38017 ft | 566 kts | 64° |
| 2026-05-07 01:34 | 43.39409 | -87.42790 | 38021 ft | 566 kts | 64° |
| 2026-05-07 01:35 | 43.42561 | -87.32872 | 38024 ft | 566 kts | 64° |
| 2026-05-07 01:35 | 43.45704 | -87.22943 | 38027 ft | 566 kts | 64° |
| 2026-05-07 01:36 | 43.48842 | -87.12993 | 38028 ft | 566 kts | 65° |
| 2026-05-07 01:36 | 43.51969 | -87.03040 | 38026 ft | 566 kts | 65° |
| 2026-05-07 01:37 | 43.55062 | -86.93160 | 38027 ft | 566 kts | 65° |
| 2026-05-07 01:37 | 43.58166 | -86.83204 | 38027 ft | 566 kts | 65° |
| 2026-05-07 01:38 | 43.61284 | -86.73165 | 38022 ft | 566 kts | 65° |
| 2026-05-07 01:38 | 43.64373 | -86.63183 | 38015 ft | 566 kts | 65° |
| 2026-05-07 01:39 | 43.67440 | -86.53234 | 38003 ft | 566 kts | 65° |
| 2026-05-07 01:39 | 43.70517 | -86.43211 | 38018 ft | 566 kts | 65° |
| 2026-05-07 01:40 | 43.73587 | -86.33176 | 38014 ft | 566 kts | 65° |
| 2026-05-07 01:40 | 43.76634 | -86.23176 | 37998 ft | 567 kts | 65° |
| 2026-05-07 01:41 | 43.79700 | -86.13072 | 38002 ft | 567 kts | 65° |
| 2026-05-07 01:41 | 43.82727 | -86.03059 | 38005 ft | 567 kts | 66° |
| 2026-05-07 01:42 | 43.85759 | -85.92990 | 38012 ft | 567 kts | 66° |
| 2026-05-07 01:42 | 43.88760 | -85.82986 | 38000 ft | 567 kts | 66° |
| 2026-05-07 01:43 | 43.91802 | -85.72805 | 37999 ft | 566 kts | 66° |
| 2026-05-07 01:43 | 43.94793 | -85.62752 | 37999 ft | 566 kts | 66° |
| 2026-05-07 01:44 | 43.97797 | -85.52618 | 38000 ft | 566 kts | 66° |
| 2026-05-07 01:44 | 44.00748 | -85.42622 | 38001 ft | 565 kts | 66° |
| 2026-05-07 01:45 | 44.03740 | -85.32445 | 37993 ft | 565 kts | 66° |
| 2026-05-07 01:45 | 44.06705 | -85.22322 | 37993 ft | 565 kts | 66° |
| 2026-05-07 01:46 | 44.09634 | -85.12280 | 37996 ft | 564 kts | 66° |
| 2026-05-07 01:46 | 44.12581 | -85.02138 | 37998 ft | 564 kts | 66° |
| 2026-05-07 01:47 | 44.15513 | -84.92007 | 37987 ft | 564 kts | 67° |
| 2026-05-07 01:47 | 44.18436 | -84.81864 | 37981 ft | 564 kts | 67° |
| 2026-05-07 01:48 | 44.21326 | -84.71796 | 37978 ft | 564 kts | 67° |
| 2026-05-07 01:48 | 44.24259 | -84.61534 | 37972 ft | 564 kts | 67° |
| 2026-05-07 01:49 | 44.27133 | -84.51441 | 37978 ft | 564 kts | 67° |
| 2026-05-07 01:49 | 44.30016 | -84.41271 | 37983 ft | 564 kts | 67° |
| 2026-05-07 01:50 | 44.32898 | -84.31063 | 37987 ft | 564 kts | 68° |
| 2026-05-07 01:50 | 44.35762 | -84.20878 | 37994 ft | 563 kts | 68° |
| 2026-05-07 01:51 | 44.38628 | -84.10644 | 37996 ft | 563 kts | 68° |
| 2026-05-07 01:51 | 44.41472 | -84.00446 | 37997 ft | 563 kts | 68° |
| 2026-05-07 01:52 | 44.44310 | -83.90224 | 37997 ft | 563 kts | 68° |
| 2026-05-07 01:52 | 44.47118 | -83.80071 | 37994 ft | 562 kts | 68° |
| 2026-05-07 01:53 | 44.49954 | -83.69772 | 38002 ft | 562 kts | 68° |
| 2026-05-07 01:53 | 44.52752 | -83.59568 | 38003 ft | 561 kts | 68° |
| 2026-05-07 01:54 | 44.55524 | -83.49419 | 38003 ft | 561 kts | 68° |
| 2026-05-07 01:54 | 44.58306 | -83.39187 | 38002 ft | 561 kts | 68° |
| 2026-05-07 01:55 | 44.61075 | -83.28962 | 38004 ft | 561 kts | 69° |
| 2026-05-07 01:55 | 44.64460 | -83.19135 | 38005 ft | 558 kts | 52° |
| 2026-05-07 01:56 | 44.69248 | -83.10716 | 38011 ft | 555 kts | 46° |
| 2026-05-07 01:56 | 44.74318 | -83.02492 | 38011 ft | 556 kts | 45° |
| 2026-05-07 01:57 | 44.79392 | -82.94304 | 38010 ft | 556 kts | 46° |
| 2026-05-07 01:57 | 44.84420 | -82.86101 | 38012 ft | 556 kts | 46° |
| 2026-05-07 01:58 | 44.89450 | -82.77830 | 38013 ft | 557 kts | 46° |
| 2026-05-07 01:58 | 44.94467 | -82.69549 | 38015 ft | 557 kts | 46° |
| 2026-05-07 01:59 | 44.99501 | -82.61216 | 38014 ft | 557 kts | 46° |
| 2026-05-07 01:59 | 45.04535 | -82.52863 | 38012 ft | 556 kts | 46° |
| 2026-05-07 02:00 | 45.09530 | -82.44549 | 38009 ft | 556 kts | 47° |
| 2026-05-07 02:00 | 45.14513 | -82.36230 | 38010 ft | 556 kts | 47° |
| 2026-05-07 02:01 | 45.19507 | -82.27869 | 38007 ft | 555 kts | 47° |
| 2026-05-07 02:01 | 45.24499 | -82.19487 | 38012 ft | 555 kts | 47° |
| 2026-05-07 02:02 | 45.29469 | -82.11115 | 38008 ft | 555 kts | 47° |
| 2026-05-07 02:02 | 45.34401 | -82.02783 | 38003 ft | 554 kts | 47° |
| 2026-05-07 02:03 | 45.39350 | -81.94398 | 38002 ft | 553 kts | 47° |
| 2026-05-07 02:03 | 45.44293 | -81.85998 | 38003 ft | 553 kts | 47° |
| 2026-05-07 02:04 | 45.49219 | -81.77602 | 37997 ft | 553 kts | 47° |
| 2026-05-07 02:04 | 45.54124 | -81.69217 | 37989 ft | 553 kts | 47° |
| 2026-05-07 02:05 | 45.59036 | -81.60794 | 37995 ft | 553 kts | 47° |
| 2026-05-07 02:05 | 45.63952 | -81.52338 | 37991 ft | 552 kts | 47° |
| 2026-05-07 02:06 | 45.68862 | -81.43868 | 37973 ft | 552 kts | 47° |
| 2026-05-07 02:06 | 45.73709 | -81.35480 | 37980 ft | 551 kts | 48° |
| 2026-05-07 02:07 | 45.78591 | -81.27008 | 37974 ft | 551 kts | 48° |
| 2026-05-07 02:07 | 45.85884 | -81.14301 | 37972 ft | 550 kts | 48° |
| 2026-05-07 02:08 | 45.90745 | -81.05801 | 37968 ft | 550 kts | 48° |
| 2026-05-07 02:08 | 45.95589 | -80.97304 | 37972 ft | 549 kts | 48° |
| 2026-05-07 02:09 | 46.00415 | -80.88813 | 37968 ft | 549 kts | 48° |
| 2026-05-07 02:09 | 46.05245 | -80.80288 | 37976 ft | 548 kts | 48° |
| 2026-05-07 02:10 | 46.10023 | -80.71830 | 37958 ft | 548 kts | 49° |
| 2026-05-07 02:10 | 46.14817 | -80.63317 | 37958 ft | 547 kts | 49° |
| 2026-05-07 02:11 | 46.19606 | -80.54786 | 37950 ft | 547 kts | 49° |
| 2026-05-07 02:11 | 46.24386 | -80.46246 | 37946 ft | 546 kts | 49° |
| 2026-05-07 02:12 | 46.29151 | -80.37708 | 37945 ft | 546 kts | 49° |
| 2026-05-07 02:12 | 46.33874 | -80.29217 | 37936 ft | 546 kts | 49° |
| 2026-05-07 02:13 | 46.38630 | -80.20641 | 37930 ft | 546 kts | 49° |
| 2026-05-07 02:13 | 46.43382 | -80.12047 | 37929 ft | 546 kts | 49° |
| 2026-05-07 02:14 | 46.48119 | -80.03452 | 37925 ft | 546 kts | 49° |
| 2026-05-07 02:14 | 46.52430 | -79.94449 | 37921 ft | 547 kts | 56° |
| 2026-05-07 02:15 | 46.56499 | -79.85125 | 37916 ft | 547 kts | 57° |
| 2026-05-07 02:15 | 46.60533 | -79.75730 | 37913 ft | 547 kts | 57° |
| 2026-05-07 02:16 | 46.64557 | -79.66339 | 37910 ft | 547 kts | 57° |
| 2026-05-07 02:16 | 46.68560 | -79.56990 | 37905 ft | 547 kts | 57° |
| 2026-05-07 02:17 | 46.72580 | -79.47578 | 37907 ft | 547 kts | 57° |
| 2026-05-07 02:17 | 46.76589 | -79.38161 | 37904 ft | 547 kts | 57° |
| 2026-05-07 02:18 | 46.80599 | -79.28709 | 37900 ft | 547 kts | 57° |
| 2026-05-07 02:18 | 46.84590 | -79.19267 | 37898 ft | 547 kts | 57° |
| 2026-05-07 02:19 | 46.88547 | -79.09877 | 37892 ft | 546 kts | 57° |
| 2026-05-07 02:19 | 46.92519 | -79.00415 | 37893 ft | 546 kts | 57° |
| 2026-05-07 02:20 | 46.95823 | -78.92522 | 37894 ft | 546 kts | 57° |
| 2026-05-07 02:20 | 47.00446 | -78.81437 | 37888 ft | 546 kts | 57° |
| 2026-05-07 02:21 | 47.04360 | -78.72017 | 37887 ft | 546 kts | 58° |
| 2026-05-07 02:21 | 47.08306 | -78.62489 | 37886 ft | 546 kts | 58° |
| 2026-05-07 02:22 | 47.12239 | -78.52956 | 37889 ft | 546 kts | 58° |
| 2026-05-07 02:22 | 47.15495 | -78.45041 | 37883 ft | 545 kts | 58° |
| 2026-05-07 02:23 | 47.20052 | -78.33925 | 37878 ft | 545 kts | 58° |
| 2026-05-07 02:23 | 47.23948 | -78.24382 | 37881 ft | 545 kts | 58° |
| 2026-05-07 02:24 | 47.27185 | -78.16430 | 37883 ft | 544 kts | 58° |
| 2026-05-07 02:24 | 47.31061 | -78.06878 | 37877 ft | 544 kts | 58° |
| 2026-05-07 02:25 | 47.34944 | -77.97273 | 37876 ft | 544 kts | 58° |
| 2026-05-07 02:25 | 47.38803 | -77.87694 | 37875 ft | 544 kts | 58° |
| 2026-05-07 02:26 | 47.42638 | -77.78141 | 37875 ft | 544 kts | 59° |
| 2026-05-07 02:26 | 47.46484 | -77.68528 | 37875 ft | 544 kts | 59° |
| 2026-05-07 02:27 | 47.50326 | -77.58891 | 37873 ft | 544 kts | 59° |
| 2026-05-07 02:27 | 47.54157 | -77.49244 | 37876 ft | 543 kts | 59° |
| 2026-05-07 02:28 | 47.57970 | -77.39610 | 37872 ft | 543 kts | 59° |
| 2026-05-07 02:28 | 47.61768 | -77.29980 | 37871 ft | 543 kts | 59° |
| 2026-05-07 02:29 | 47.65572 | -77.20300 | 37868 ft | 543 kts | 59° |
| 2026-05-07 02:29 | 47.69359 | -77.10628 | 37867 ft | 543 kts | 59° |
| 2026-05-07 02:30 | 47.73145 | -77.00923 | 37869 ft | 543 kts | 59° |
| 2026-05-07 02:30 | 47.76900 | -76.91264 | 37868 ft | 543 kts | 60° |
| 2026-05-07 02:31 | 47.80662 | -76.81551 | 37860 ft | 543 kts | 60° |
| 2026-05-07 02:31 | 47.84424 | -76.71804 | 37861 ft | 543 kts | 60° |
| 2026-05-07 02:32 | 47.88171 | -76.62057 | 37860 ft | 542 kts | 60° |
| 2026-05-07 02:32 | 47.91880 | -76.52378 | 37860 ft | 542 kts | 60° |
| 2026-05-07 02:33 | 47.95609 | -76.42609 | 37855 ft | 542 kts | 60° |
| 2026-05-07 02:33 | 47.99336 | -76.32811 | 37855 ft | 542 kts | 60° |
| 2026-05-07 02:34 | 48.03047 | -76.23018 | 37851 ft | 542 kts | 60° |
| 2026-05-07 02:34 | 48.06719 | -76.13291 | 37851 ft | 542 kts | 60° |
| 2026-05-07 02:35 | 48.10405 | -76.03494 | 37851 ft | 541 kts | 61° |
| 2026-05-07 02:35 | 48.14093 | -75.93653 | 37843 ft | 541 kts | 61° |
| 2026-05-07 02:36 | 48.17767 | -75.83812 | 37845 ft | 541 kts | 61° |
| 2026-05-07 02:36 | 48.21445 | -75.73925 | 37844 ft | 541 kts | 61° |
| 2026-05-07 02:37 | 48.25097 | -75.64070 | 37839 ft | 541 kts | 61° |
| 2026-05-07 02:37 | 48.28725 | -75.54246 | 37843 ft | 541 kts | 61° |
| 2026-05-07 02:38 | 48.32365 | -75.44351 | 37842 ft | 541 kts | 62° |
| 2026-05-07 02:38 | 48.36002 | -75.34425 | 37837 ft | 541 kts | 62° |
| 2026-05-07 02:39 | 48.39623 | -75.24509 | 37837 ft | 541 kts | 62° |
| 2026-05-07 02:39 | 48.43242 | -75.14558 | 37835 ft | 541 kts | 62° |
| 2026-05-07 02:40 | 48.46824 | -75.04672 | 37837 ft | 541 kts | 62° |
| 2026-05-07 02:40 | 48.50422 | -74.94703 | 37835 ft | 541 kts | 62° |
| 2026-05-07 02:41 | 48.54004 | -74.84743 | 37835 ft | 541 kts | 62° |
| 2026-05-07 02:41 | 48.57589 | -74.74734 | 37836 ft | 541 kts | 62° |
| 2026-05-07 02:42 | 48.61162 | -74.64721 | 37833 ft | 541 kts | 62° |
| 2026-05-07 02:42 | 48.64706 | -74.54751 | 37835 ft | 541 kts | 62° |
| 2026-05-07 02:43 | 48.68266 | -74.44701 | 37833 ft | 541 kts | 63° |
| 2026-05-07 02:43 | 48.71805 | -74.34667 | 37838 ft | 541 kts | 63° |
| 2026-05-07 02:44 | 48.75314 | -74.24681 | 37838 ft | 541 kts | 63° |
| 2026-05-07 02:44 | 48.78851 | -74.14577 | 37837 ft | 541 kts | 63° |
| 2026-05-07 02:45 | 48.82362 | -74.04507 | 37838 ft | 541 kts | 63° |
| 2026-05-07 02:45 | 48.85852 | -73.94459 | 37834 ft | 541 kts | 63° |
| 2026-05-07 02:46 | 48.89338 | -73.84382 | 37832 ft | 541 kts | 63° |
| 2026-05-07 02:46 | 48.92828 | -73.74256 | 37830 ft | 541 kts | 63° |
| 2026-05-07 02:47 | 48.96316 | -73.64093 | 37830 ft | 541 kts | 64° |
| 2026-05-07 02:47 | 48.99789 | -73.53933 | 37828 ft | 541 kts | 64° |
| 2026-05-07 02:48 | 49.03251 | -73.43768 | 37829 ft | 541 kts | 64° |
| 2026-05-07 02:48 | 49.06684 | -73.33646 | 37825 ft | 541 kts | 64° |
| 2026-05-07 02:49 | 49.10113 | -73.23498 | 37825 ft | 541 kts | 64° |
| 2026-05-07 02:49 | 49.13567 | -73.13232 | 37818 ft | 541 kts | 64° |
| 2026-05-07 02:50 | 49.16983 | -73.03041 | 37818 ft | 541 kts | 64° |
| 2026-05-07 02:50 | 49.20802 | -72.93123 | 37816 ft | 542 kts | 59° |
| 2026-05-07 02:51 | 49.24785 | -72.83321 | 37814 ft | 542 kts | 59° |
| 2026-05-07 02:51 | 49.28777 | -72.73542 | 37814 ft | 542 kts | 59° |
| 2026-05-07 02:52 | 49.32761 | -72.63735 | 37812 ft | 542 kts | 59° |
| 2026-05-07 02:52 | 49.36700 | -72.53980 | 37808 ft | 541 kts | 59° |
| 2026-05-07 02:53 | 49.40648 | -72.44162 | 37808 ft | 541 kts | 59° |
| 2026-05-07 02:53 | 49.44590 | -72.34323 | 37806 ft | 541 kts | 59° |
| 2026-05-07 02:54 | 49.48530 | -72.24452 | 37802 ft | 541 kts | 59° |
| 2026-05-07 02:54 | 49.52466 | -72.14554 | 37802 ft | 541 kts | 60° |
| 2026-05-07 02:55 | 49.56354 | -72.04741 | 37800 ft | 541 kts | 60° |
| 2026-05-07 02:55 | 49.60264 | -71.94835 | 37802 ft | 541 kts | 60° |
| 2026-05-07 02:56 | 49.64145 | -71.84967 | 37803 ft | 541 kts | 60° |
| 2026-05-07 02:56 | 49.68066 | -71.74958 | 37803 ft | 542 kts | 60° |
| 2026-05-07 02:57 | 49.71949 | -71.65006 | 37799 ft | 542 kts | 60° |
| 2026-05-07 02:57 | 49.75812 | -71.55070 | 37800 ft | 542 kts | 60° |
| 2026-05-07 02:58 | 49.79686 | -71.45070 | 37796 ft | 541 kts | 60° |
| 2026-05-07 02:58 | 49.83524 | -71.35122 | 37811 ft | 541 kts | 61° |
| 2026-05-07 02:59 | 49.87393 | -71.25057 | 37795 ft | 541 kts | 61° |
| 2026-05-07 02:59 | 49.91236 | -71.15020 | 37809 ft | 541 kts | 61° |
| 2026-05-07 03:00 | 49.95050 | -71.05019 | 37787 ft | 541 kts | 61° |
| 2026-05-07 03:00 | 49.98871 | -70.94961 | 37797 ft | 541 kts | 61° |
| 2026-05-07 03:01 | 50.02688 | -70.84876 | 37798 ft | 541 kts | 61° |
| 2026-05-07 03:01 | 50.06499 | -70.74768 | 37800 ft | 541 kts | 61° |
| 2026-05-07 03:02 | 50.10272 | -70.64721 | 37800 ft | 541 kts | 62° |
| 2026-05-07 03:02 | 50.14063 | -70.54589 | 37786 ft | 541 kts | 62° |
| 2026-05-07 03:03 | 50.17839 | -70.44454 | 37795 ft | 541 kts | 62° |
| 2026-05-07 03:03 | 50.21613 | -70.34285 | 37798 ft | 542 kts | 62° |
| 2026-05-07 03:04 | 50.25360 | -70.24152 | 37797 ft | 542 kts | 62° |
| 2026-05-07 03:04 | 50.29119 | -70.13944 | 37794 ft | 542 kts | 62° |
| 2026-05-07 03:05 | 50.32872 | -70.03714 | 37783 ft | 542 kts | 62° |
| 2026-05-07 03:05 | 50.36582 | -69.93558 | 37788 ft | 542 kts | 62° |
| 2026-05-07 03:06 | 50.40340 | -69.83234 | 37793 ft | 542 kts | 62° |
| 2026-05-07 03:06 | 50.44035 | -69.73038 | 37795 ft | 542 kts | 62° |
| 2026-05-07 03:07 | 50.47747 | -69.62755 | 37795 ft | 542 kts | 63° |
| 2026-05-07 03:07 | 50.51449 | -69.52459 | 37790 ft | 542 kts | 63° |
| 2026-05-07 03:08 | 50.55148 | -69.42129 | 37791 ft | 542 kts | 63° |
| 2026-05-07 03:08 | 50.58832 | -69.31802 | 37792 ft | 542 kts | 63° |
| 2026-05-07 03:09 | 50.62488 | -69.21509 | 37793 ft | 542 kts | 63° |
| 2026-05-07 03:09 | 50.66159 | -69.11132 | 37790 ft | 542 kts | 63° |
| 2026-05-07 03:10 | 50.69820 | -69.00742 | 37790 ft | 542 kts | 63° |
| 2026-05-07 03:10 | 50.73463 | -68.90363 | 37792 ft | 542 kts | 63° |
| 2026-05-07 03:11 | 50.77095 | -68.79969 | 37794 ft | 542 kts | 63° |
| 2026-05-07 03:11 | 50.80724 | -68.69541 | 37793 ft | 543 kts | 63° |
| 2026-05-07 03:12 | 50.84357 | -68.59062 | 37794 ft | 543 kts | 63° |
| 2026-05-07 03:12 | 50.87974 | -68.48585 | 37798 ft | 543 kts | 63° |
| 2026-05-07 03:13 | 50.91563 | -68.38144 | 37796 ft | 543 kts | 64° |
| 2026-05-07 03:13 | 50.95169 | -68.27610 | 37802 ft | 544 kts | 64° |
| 2026-05-07 03:14 | 50.98760 | -68.17075 | 37800 ft | 544 kts | 64° |
| 2026-05-07 03:15 | 51.04156 | -68.01166 | 37803 ft | 545 kts | 64° |
| 2026-05-07 03:15 | 51.07714 | -67.90619 | 37806 ft | 545 kts | 64° |
| 2026-05-07 03:16 | 51.11282 | -67.79997 | 37806 ft | 546 kts | 64° |
| 2026-05-07 03:16 | 51.14855 | -67.69317 | 37807 ft | 546 kts | 64° |
| 2026-05-07 03:17 | 51.18417 | -67.58623 | 37810 ft | 547 kts | 64° |
| 2026-05-07 03:17 | 51.21977 | -67.47889 | 37815 ft | 547 kts | 64° |
| 2026-05-07 03:18 | 51.25515 | -67.37173 | 37817 ft | 547 kts | 64° |
| 2026-05-07 03:18 | 51.29053 | -67.26412 | 37819 ft | 547 kts | 64° |
| 2026-05-07 03:19 | 51.32589 | -67.15615 | 37820 ft | 548 kts | 64° |
| 2026-05-07 03:19 | 51.36091 | -67.04868 | 37828 ft | 548 kts | 64° |
| 2026-05-07 03:20 | 51.39603 | -66.94049 | 37827 ft | 548 kts | 64° |
| 2026-05-07 03:20 | 51.43102 | -66.83221 | 37829 ft | 548 kts | 64° |
| 2026-05-07 03:21 | 51.46593 | -66.72370 | 37828 ft | 548 kts | 64° |
| 2026-05-07 03:21 | 51.50058 | -66.61553 | 37824 ft | 547 kts | 64° |
| 2026-05-07 03:22 | 51.53545 | -66.50617 | 37832 ft | 547 kts | 64° |
| 2026-05-07 03:22 | 51.56983 | -66.39788 | 37830 ft | 547 kts | 64° |
| 2026-05-07 03:23 | 51.60418 | -66.28921 | 37831 ft | 547 kts | 65° |
| 2026-05-07 03:23 | 51.63857 | -66.17993 | 37831 ft | 546 kts | 65° |
| 2026-05-07 03:24 | 51.67260 | -66.07131 | 37835 ft | 546 kts | 65° |
| 2026-05-07 03:24 | 51.70667 | -65.96206 | 37838 ft | 546 kts | 65° |
| 2026-05-07 03:25 | 51.74069 | -65.85249 | 37845 ft | 546 kts | 65° |
| 2026-05-07 03:25 | 51.77460 | -65.74275 | 37851 ft | 546 kts | 65° |
| 2026-05-07 03:26 | 51.80815 | -65.63373 | 37846 ft | 545 kts | 65° |
| 2026-05-07 03:26 | 51.84198 | -65.52329 | 37852 ft | 545 kts | 65° |
| 2026-05-07 03:27 | 51.87528 | -65.41407 | 37849 ft | 545 kts | 65° |
| 2026-05-07 03:27 | 51.90874 | -65.30385 | 37849 ft | 546 kts | 65° |
| 2026-05-07 03:28 | 51.94214 | -65.19329 | 37851 ft | 546 kts | 66° |
| 2026-05-07 03:28 | 51.97517 | -65.08347 | 37855 ft | 546 kts | 66° |
| 2026-05-07 03:29 | 52.00835 | -64.97271 | 37858 ft | 546 kts | 66° |
| 2026-05-07 03:29 | 52.04149 | -64.86219 | 37847 ft | 546 kts | 66° |
| 2026-05-07 03:30 | 52.07479 | -64.75088 | 37848 ft | 546 kts | 66° |
| 2026-05-07 03:30 | 52.10769 | -64.64034 | 37860 ft | 546 kts | 66° |
| 2026-05-07 03:31 | 52.14066 | -64.52896 | 37863 ft | 547 kts | 66° |
| 2026-05-07 03:31 | 52.17355 | -64.41734 | 37856 ft | 547 kts | 66° |
| 2026-05-07 03:32 | 52.20633 | -64.30555 | 37854 ft | 547 kts | 66° |
| 2026-05-07 03:32 | 52.23906 | -64.19340 | 37854 ft | 547 kts | 66° |
| 2026-05-07 03:33 | 52.27138 | -64.08214 | 37860 ft | 547 kts | 66° |
| 2026-05-07 03:33 | 52.30385 | -63.96987 | 37854 ft | 547 kts | 67° |
| 2026-05-07 03:34 | 52.33623 | -63.85735 | 37858 ft | 547 kts | 67° |
| 2026-05-07 03:34 | 52.36850 | -63.74467 | 37855 ft | 547 kts | 67° |
| 2026-05-07 03:35 | 52.40073 | -63.63158 | 37857 ft | 548 kts | 67° |
| 2026-05-07 03:35 | 52.43254 | -63.51944 | 37854 ft | 548 kts | 67° |
| 2026-05-07 03:36 | 52.46462 | -63.40579 | 37858 ft | 548 kts | 67° |
| 2026-05-07 03:36 | 52.49649 | -63.29233 | 37856 ft | 548 kts | 68° |
| 2026-05-07 03:37 | 52.52837 | -63.17828 | 37857 ft | 549 kts | 68° |
| 2026-05-07 03:37 | 52.55981 | -63.06528 | 37858 ft | 549 kts | 68° |
| 2026-05-07 03:38 | 52.59149 | -62.95086 | 37856 ft | 549 kts | 68° |
| 2026-05-07 03:38 | 52.62297 | -62.83658 | 37860 ft | 549 kts | 68° |
| 2026-05-07 03:39 | 52.65437 | -62.72204 | 37855 ft | 549 kts | 68° |
| 2026-05-07 03:39 | 52.68557 | -62.60766 | 37858 ft | 550 kts | 68° |
| 2026-05-07 03:40 | 52.71679 | -62.49264 | 37854 ft | 549 kts | 68° |
| 2026-05-07 03:40 | 52.74785 | -62.37761 | 37856 ft | 550 kts | 68° |
| 2026-05-07 03:41 | 52.77887 | -62.26217 | 37854 ft | 550 kts | 68° |
| 2026-05-07 03:41 | 52.80952 | -62.14752 | 37859 ft | 550 kts | 68° |
| 2026-05-07 03:42 | 52.84027 | -62.03191 | 37859 ft | 550 kts | 69° |
| 2026-05-07 03:42 | 52.87096 | -61.91598 | 37861 ft | 550 kts | 69° |
| 2026-05-07 03:43 | 52.90161 | -61.79959 | 37860 ft | 550 kts | 69° |
| 2026-05-07 03:43 | 52.93202 | -61.68348 | 37851 ft | 550 kts | 69° |
| 2026-05-07 03:44 | 52.96220 | -61.56767 | 37869 ft | 550 kts | 69° |
| 2026-05-07 03:44 | 52.99239 | -61.45125 | 37843 ft | 550 kts | 69° |
| 2026-05-07 03:45 | 53.02252 | -61.33444 | 37863 ft | 550 kts | 69° |
| 2026-05-07 03:45 | 53.05255 | -61.21741 | 37864 ft | 550 kts | 69° |
| 2026-05-07 03:46 | 53.08225 | -61.10108 | 37861 ft | 551 kts | 69° |
| 2026-05-07 03:46 | 53.11207 | -60.98362 | 37864 ft | 551 kts | 69° |
| 2026-05-07 03:47 | 53.14151 | -60.86708 | 37860 ft | 551 kts | 69° |
| 2026-05-07 03:47 | 53.17117 | -60.74905 | 37861 ft | 551 kts | 70° |
| 2026-05-07 03:48 | 53.20061 | -60.63127 | 37865 ft | 551 kts | 70° |
| 2026-05-07 03:48 | 53.22990 | -60.51344 | 37866 ft | 550 kts | 70° |
| 2026-05-07 03:49 | 53.25918 | -60.39499 | 37869 ft | 550 kts | 70° |
| 2026-05-07 03:49 | 53.28806 | -60.27761 | 37869 ft | 550 kts | 70° |
| 2026-05-07 03:50 | 53.31704 | -60.15913 | 37867 ft | 550 kts | 70° |
| 2026-05-07 03:50 | 53.34588 | -60.04065 | 37863 ft | 550 kts | 70° |
| 2026-05-07 03:51 | 53.37461 | -59.92197 | 37860 ft | 550 kts | 70° |
| 2026-05-07 03:51 | 53.40298 | -59.80412 | 37862 ft | 550 kts | 70° |
| 2026-05-07 03:52 | 53.43151 | -59.68495 | 37867 ft | 550 kts | 70° |
| 2026-05-07 03:52 | 53.45991 | -59.56566 | 37869 ft | 550 kts | 70° |
| 2026-05-07 03:53 | 53.48816 | -59.44637 | 37873 ft | 550 kts | 70° |
| 2026-05-07 03:53 | 53.51623 | -59.32716 | 37876 ft | 550 kts | 71° |
| 2026-05-07 03:54 | 53.54398 | -59.20860 | 37876 ft | 549 kts | 71° |
| 2026-05-07 03:54 | 53.57193 | -59.08859 | 37879 ft | 549 kts | 71° |
| 2026-05-07 03:55 | 53.59961 | -58.96905 | 37882 ft | 549 kts | 71° |
| 2026-05-07 03:55 | 53.62721 | -58.84917 | 37880 ft | 548 kts | 71° |
| 2026-05-07 03:56 | 53.65456 | -58.72970 | 37879 ft | 548 kts | 71° |
| 2026-05-07 03:56 | 53.68178 | -58.61015 | 37877 ft | 548 kts | 71° |
| 2026-05-07 03:57 | 53.70907 | -58.48961 | 37884 ft | 548 kts | 71° |
| 2026-05-07 03:57 | 53.73589 | -58.37043 | 37876 ft | 547 kts | 71° |
| 2026-05-07 03:58 | 53.76275 | -58.25042 | 37876 ft | 547 kts | 71° |
| 2026-05-07 03:58 | 53.78965 | -58.12952 | 37875 ft | 547 kts | 71° |
| 2026-05-07 03:59 | 53.81611 | -58.00994 | 37876 ft | 546 kts | 71° |
| 2026-05-07 03:59 | 53.84258 | -57.88957 | 37875 ft | 546 kts | 71° |
| 2026-05-07 04:00 | 53.86896 | -57.76894 | 37878 ft | 545 kts | 72° |
| 2026-05-07 04:00 | 53.89511 | -57.64862 | 37875 ft | 545 kts | 72° |
| 2026-05-07 04:01 | 53.92110 | -57.52833 | 37867 ft | 544 kts | 72° |
| 2026-05-07 04:01 | 53.94700 | -57.40777 | 37883 ft | 545 kts | 72° |
| 2026-05-07 04:02 | 53.97283 | -57.28684 | 37884 ft | 544 kts | 72° |
| 2026-05-07 04:02 | 53.99848 | -57.16607 | 37881 ft | 544 kts | 72° |
| 2026-05-07 04:03 | 54.02403 | -57.04510 | 37879 ft | 543 kts | 73° |
| 2026-05-07 04:03 | 54.05624 | -56.92943 | 37888 ft | 545 kts | 63° |
| 2026-05-07 04:04 | 54.09239 | -56.81633 | 37871 ft | 545 kts | 62° |
| 2026-05-07 04:04 | 54.12909 | -56.70322 | 37870 ft | 544 kts | 62° |
| 2026-05-07 04:05 | 54.16551 | -56.59009 | 37892 ft | 544 kts | 62° |
| 2026-05-07 04:05 | 54.20146 | -56.47740 | 37880 ft | 544 kts | 63° |
| 2026-05-07 04:06 | 54.23746 | -56.36387 | 37886 ft | 543 kts | 63° |
| 2026-05-07 04:06 | 54.27336 | -56.25011 | 37891 ft | 543 kts | 63° |
| 2026-05-07 04:07 | 54.30884 | -56.13715 | 37894 ft | 542 kts | 63° |
| 2026-05-07 04:07 | 54.34440 | -56.02343 | 37895 ft | 542 kts | 63° |
| 2026-05-07 04:08 | 54.37980 | -55.90968 | 37903 ft | 541 kts | 63° |
| 2026-05-07 04:08 | 54.41511 | -55.79569 | 37903 ft | 540 kts | 63° |
| 2026-05-07 04:09 | 54.45026 | -55.68164 | 37903 ft | 540 kts | 64° |
| 2026-05-07 04:09 | 54.48506 | -55.56820 | 37902 ft | 539 kts | 64° |
| 2026-05-07 04:10 | 54.51989 | -55.45412 | 37911 ft | 539 kts | 64° |
| 2026-05-07 04:10 | 54.55466 | -55.33973 | 37920 ft | 539 kts | 64° |
| 2026-05-07 04:11 | 54.58924 | -55.22535 | 37919 ft | 538 kts | 64° |
| 2026-05-07 04:11 | 54.62374 | -55.11074 | 37925 ft | 538 kts | 64° |
| 2026-05-07 04:12 | 54.65789 | -54.99672 | 37921 ft | 537 kts | 64° |
| 2026-05-07 04:12 | 54.69209 | -54.88197 | 37926 ft | 537 kts | 64° |
| 2026-05-07 04:13 | 54.72616 | -54.76711 | 37924 ft | 537 kts | 64° |
| 2026-05-07 04:13 | 54.75988 | -54.65286 | 37925 ft | 537 kts | 64° |
| 2026-05-07 04:14 | 54.79404 | -54.53660 | 37935 ft | 536 kts | 64° |
| 2026-05-07 04:14 | 54.82749 | -54.42216 | 37933 ft | 536 kts | 64° |
| 2026-05-07 04:15 | 54.86110 | -54.30660 | 37937 ft | 536 kts | 64° |
| 2026-05-07 04:15 | 54.89459 | -54.19090 | 37933 ft | 536 kts | 64° |
| 2026-05-07 04:16 | 54.92782 | -54.07553 | 37939 ft | 535 kts | 64° |
| 2026-05-07 04:16 | 54.96088 | -53.96017 | 37938 ft | 535 kts | 64° |
| 2026-05-07 04:17 | 54.99394 | -53.84426 | 37939 ft | 535 kts | 64° |
| 2026-05-07 04:17 | 55.02692 | -53.72803 | 37947 ft | 534 kts | 64° |
| 2026-05-07 04:18 | 55.05968 | -53.61200 | 37949 ft | 534 kts | 64° |
| 2026-05-07 04:18 | 55.09209 | -53.49665 | 37949 ft | 533 kts | 64° |
| 2026-05-07 04:19 | 55.12465 | -53.38015 | 37950 ft | 533 kts | 64° |
| 2026-05-07 04:19 | 55.15701 | -53.26381 | 37949 ft | 532 kts | 64° |
| 2026-05-07 04:20 | 55.18924 | -53.14735 | 37954 ft | 532 kts | 64° |
| 2026-05-07 04:20 | 55.22116 | -53.03142 | 37954 ft | 531 kts | 65° |
| 2026-05-07 04:21 | 55.26903 | -52.85643 | 37953 ft | 531 kts | 65° |
| 2026-05-07 04:21 | 55.30075 | -52.73974 | 37958 ft | 530 kts | 65° |
| 2026-05-07 04:22 | 55.33235 | -52.62291 | 37949 ft | 529 kts | 65° |
| 2026-05-07 04:22 | 55.36386 | -52.50582 | 37963 ft | 529 kts | 65° |
| 2026-05-07 04:23 | 55.39498 | -52.38956 | 37958 ft | 528 kts | 65° |
| 2026-05-07 04:23 | 55.42610 | -52.27272 | 37962 ft | 528 kts | 65° |
| 2026-05-07 04:24 | 55.45716 | -52.15549 | 37964 ft | 528 kts | 65° |
| 2026-05-07 04:24 | 55.48807 | -52.03824 | 37970 ft | 527 kts | 65° |
| 2026-05-07 04:25 | 55.51861 | -51.92177 | 37954 ft | 527 kts | 65° |
| 2026-05-07 04:25 | 55.54922 | -51.80441 | 37975 ft | 526 kts | 65° |
| 2026-05-07 04:26 | 55.57972 | -51.68688 | 37986 ft | 525 kts | 65° |
| 2026-05-07 04:26 | 55.61005 | -51.56941 | 37965 ft | 525 kts | 65° |
| 2026-05-07 04:27 | 55.64007 | -51.45249 | 37974 ft | 524 kts | 65° |
| 2026-05-07 04:27 | 55.67025 | -51.33434 | 37761 ft | 524 kts | 65° |
| 2026-05-07 04:28 | 55.68509 | -51.27605 | 37930 ft | 525 kts | 65° |
| 2026-05-07 04:28 | 55.70011 | -51.21690 | 37978 ft | 529 kts | 65° |
| 2026-05-07 04:28 | 55.73040 | -51.09706 | 37979 ft | 535 kts | 65° |
| 2026-05-07 04:29 | 55.76068 | -50.97663 | 37976 ft | 534 kts | 65° |
| 2026-05-07 04:29 | 55.79084 | -50.85596 | 37982 ft | 534 kts | 66° |
| 2026-05-07 04:30 | 55.82087 | -50.73520 | 37988 ft | 533 kts | 66° |
| 2026-05-07 04:30 | 55.85048 | -50.61548 | 37982 ft | 533 kts | 66° |
| 2026-05-07 04:31 | 55.88018 | -50.49471 | 37986 ft | 533 kts | 66° |
| 2026-05-07 04:31 | 55.90981 | -50.37356 | 37988 ft | 532 kts | 66° |
| 2026-05-07 04:32 | 55.93905 | -50.25336 | 37986 ft | 532 kts | 66° |
| 2026-05-07 04:32 | 55.96836 | -50.13217 | 37992 ft | 532 kts | 66° |
| 2026-05-07 04:33 | 55.99682 | -50.01066 | 37989 ft | 531 kts | 71° |
| 2026-05-07 04:33 | 56.01705 | -49.88389 | 37997 ft | 531 kts | 76° |
| 2026-05-07 04:34 | 56.03531 | -49.75577 | 37998 ft | 531 kts | 76° |
| 2026-05-07 04:34 | 56.05301 | -49.62853 | 38001 ft | 530 kts | 76° |
| 2026-05-07 04:35 | 56.07076 | -49.50072 | 38002 ft | 530 kts | 76° |
| 2026-05-07 04:35 | 56.08852 | -49.37244 | 38004 ft | 530 kts | 76° |
| 2026-05-07 04:36 | 56.10614 | -49.24435 | 38004 ft | 530 kts | 76° |
| 2026-05-07 04:36 | 56.12358 | -49.11639 | 38016 ft | 529 kts | 76° |
| 2026-05-07 04:37 | 56.14084 | -48.98873 | 38020 ft | 529 kts | 76° |
| 2026-05-07 04:37 | 56.15798 | -48.86079 | 38023 ft | 529 kts | 76° |
| 2026-05-07 04:38 | 56.17508 | -48.73205 | 38024 ft | 529 kts | 76° |
| 2026-05-07 04:38 | 56.18918 | -48.62506 | 38026 ft | 529 kts | 76° |
| 2026-05-07 04:39 | 56.20597 | -48.49660 | 38028 ft | 529 kts | 76° |
| 2026-05-07 04:39 | 56.22535 | -48.34691 | 38031 ft | 529 kts | 76° |
| 2026-05-07 04:40 | 56.23923 | -48.23875 | 38037 ft | 529 kts | 76° |
| 2026-05-07 04:40 | 56.25551 | -48.11081 | 38041 ft | 529 kts | 77° |
| 2026-05-07 04:41 | 56.27177 | -47.98190 | 38046 ft | 529 kts | 77° |
| 2026-05-07 04:41 | 56.28791 | -47.85276 | 38054 ft | 529 kts | 77° |
| 2026-05-07 04:42 | 56.30646 | -47.70280 | 38057 ft | 529 kts | 77° |
| 2026-05-07 04:42 | 56.31967 | -47.59503 | 38062 ft | 529 kts | 77° |
| 2026-05-07 04:43 | 56.33541 | -47.46560 | 38065 ft | 528 kts | 77° |
| 2026-05-07 04:43 | 56.35096 | -47.33643 | 38074 ft | 528 kts | 77° |
| 2026-05-07 04:44 | 56.36644 | -47.20661 | 38084 ft | 529 kts | 77° |
| 2026-05-07 04:44 | 56.38161 | -47.07825 | 38088 ft | 529 kts | 77° |
| 2026-05-07 04:45 | 56.39685 | -46.94793 | 38093 ft | 529 kts | 77° |
| 2026-05-07 04:45 | 56.41191 | -46.81797 | 38108 ft | 529 kts | 77° |
| 2026-05-07 04:46 | 56.42683 | -46.68792 | 38107 ft | 529 kts | 77° |
| 2026-05-07 04:46 | 56.44152 | -46.55859 | 38111 ft | 529 kts | 77° |
| 2026-05-07 04:47 | 56.45619 | -46.42810 | 38118 ft | 529 kts | 77° |
| 2026-05-07 04:47 | 56.47072 | -46.29759 | 38127 ft | 529 kts | 77° |
| 2026-05-07 04:48 | 56.48512 | -46.16687 | 38135 ft | 529 kts | 77° |
| 2026-05-07 04:48 | 56.49937 | -46.03626 | 38138 ft | 529 kts | 77° |
| 2026-05-07 04:49 | 56.51337 | -45.90651 | 38146 ft | 530 kts | 77° |
| 2026-05-07 04:49 | 56.52737 | -45.77545 | 38153 ft | 530 kts | 77° |
| 2026-05-07 04:50 | 56.54123 | -45.64424 | 38159 ft | 529 kts | 77° |
| 2026-05-07 04:50 | 56.55493 | -45.51316 | 38162 ft | 529 kts | 77° |
| 2026-05-07 04:51 | 56.56840 | -45.38289 | 38173 ft | 529 kts | 77° |
| 2026-05-07 04:51 | 56.58181 | -45.25179 | 38175 ft | 529 kts | 77° |
| 2026-05-07 04:52 | 56.59509 | -45.12055 | 38178 ft | 529 kts | 77° |
| 2026-05-07 04:52 | 56.60170 | -45.05466 | 38436 ft | 529 kts | 77° |
| 2026-05-07 04:52 | 56.60828 | -44.98954 | 38397 ft | 519 kts | 80° |
| 2026-05-07 04:53 | 56.61463 | -44.92584 | 38199 ft | 509 kts | 80° |
| 2026-05-07 04:53 | 56.62077 | -44.86260 | 37868 ft | 507 kts | 77° |
| 2026-05-07 04:53 | 56.62681 | -44.80040 | 38130 ft | 507 kts | 77° |
| 2026-05-07 04:53 | 56.63299 | -44.73706 | 38199 ft | 511 kts | 77° |
| 2026-05-07 04:54 | 56.64548 | -44.60861 | 38204 ft | 522 kts | 77° |
| 2026-05-07 04:54 | 56.65804 | -44.47776 | 38207 ft | 529 kts | 77° |
| 2026-05-07 04:55 | 56.67048 | -44.34611 | 38208 ft | 528 kts | 77° |
| 2026-05-07 04:55 | 56.68276 | -44.21442 | 38214 ft | 528 kts | 77° |
| 2026-05-07 04:56 | 56.69482 | -44.08374 | 38220 ft | 527 kts | 77° |
| 2026-05-07 04:56 | 56.70682 | -43.95230 | 38224 ft | 527 kts | 77° |
| 2026-05-07 04:57 | 56.71866 | -43.82092 | 38227 ft | 526 kts | 77° |
| 2026-05-07 04:57 | 56.73037 | -43.68929 | 38230 ft | 525 kts | 77° |
| 2026-05-07 04:58 | 56.74188 | -43.55843 | 38234 ft | 524 kts | 77° |
| 2026-05-07 04:58 | 56.75323 | -43.42769 | 38238 ft | 523 kts | 78° |
| 2026-05-07 04:59 | 56.76444 | -43.29691 | 38240 ft | 522 kts | 78° |
| 2026-05-07 04:59 | 56.77549 | -43.16624 | 38249 ft | 521 kts | 78° |
| 2026-05-07 05:00 | 56.78634 | -43.03633 | 38254 ft | 520 kts | 78° |
| 2026-05-07 05:00 | 56.79708 | -42.90605 | 38255 ft | 519 kts | 78° |
| 2026-05-07 05:01 | 56.80766 | -42.77588 | 38259 ft | 519 kts | 78° |
| 2026-05-07 05:01 | 56.81810 | -42.64583 | 38268 ft | 518 kts | 79° |
| 2026-05-07 05:02 | 56.82834 | -42.51659 | 38268 ft | 517 kts | 79° |
| 2026-05-07 05:02 | 56.83845 | -42.38705 | 38274 ft | 516 kts | 79° |
| 2026-05-07 05:03 | 56.84845 | -42.25718 | 38274 ft | 515 kts | 79° |
| 2026-05-07 05:03 | 56.85830 | -42.12755 | 38275 ft | 515 kts | 79° |
| 2026-05-07 05:04 | 56.86801 | -41.99789 | 38280 ft | 515 kts | 79° |
| 2026-05-07 05:04 | 56.87754 | -41.86868 | 38284 ft | 515 kts | 79° |
| 2026-05-07 05:05 | 56.88698 | -41.73892 | 38292 ft | 516 kts | 79° |
| 2026-05-07 05:05 | 56.89631 | -41.60875 | 38277 ft | 516 kts | 79° |
| 2026-05-07 05:06 | 56.90549 | -41.47866 | 38293 ft | 517 kts | 80° |
| 2026-05-07 05:06 | 56.91457 | -41.34807 | 38307 ft | 517 kts | 80° |
| 2026-05-07 05:07 | 56.92347 | -41.21803 | 38297 ft | 518 kts | 80° |
| 2026-05-07 05:07 | 56.93229 | -41.08710 | 38297 ft | 519 kts | 80° |
| 2026-05-07 05:08 | 56.94099 | -40.95587 | 38303 ft | 520 kts | 80° |
| 2026-05-07 05:08 | 56.94960 | -40.82391 | 38304 ft | 522 kts | 80° |
| 2026-05-07 05:09 | 56.95801 | -40.69278 | 38304 ft | 523 kts | 80° |
| 2026-05-07 05:09 | 56.96633 | -40.56069 | 38305 ft | 524 kts | 80° |
| 2026-05-07 05:10 | 56.97459 | -40.42753 | 38305 ft | 525 kts | 80° |
| 2026-05-07 05:10 | 56.98263 | -40.29539 | 38310 ft | 525 kts | 80° |
| 2026-05-07 05:11 | 56.99059 | -40.16232 | 38306 ft | 525 kts | 80° |
| 2026-05-07 05:11 | 56.99859 | -40.02947 | 38312 ft | 524 kts | 78° |
| 2026-05-07 05:12 | 57.01430 | -39.89940 | 38312 ft | 520 kts | 71° |
| 2026-05-07 05:12 | 57.03234 | -39.77090 | 38309 ft | 519 kts | 71° |
| 2026-05-07 05:13 | 57.05047 | -39.64357 | 38316 ft | 519 kts | 71° |
| 2026-05-07 05:13 | 57.06847 | -39.51537 | 38316 ft | 518 kts | 71° |
| 2026-05-07 05:14 | 57.08622 | -39.38717 | 38305 ft | 516 kts | 71° |
| 2026-05-07 05:14 | 57.10375 | -39.25930 | 38310 ft | 515 kts | 71° |
| 2026-05-07 05:15 | 57.12098 | -39.13255 | 38314 ft | 513 kts | 71° |
| 2026-05-07 05:15 | 57.13814 | -39.00528 | 38319 ft | 512 kts | 71° |
| 2026-05-07 05:16 | 57.15514 | -38.87817 | 38322 ft | 511 kts | 71° |
| 2026-05-07 05:16 | 57.17200 | -38.75105 | 38321 ft | 509 kts | 71° |
| 2026-05-07 05:17 | 57.18853 | -38.62526 | 38324 ft | 508 kts | 71° |
| 2026-05-07 05:17 | 57.20502 | -38.49877 | 38321 ft | 507 kts | 71° |
| 2026-05-07 05:18 | 57.22142 | -38.37238 | 38364 ft | 505 kts | 76° |
| 2026-05-07 05:18 | 57.23747 | -38.24782 | 38320 ft | 496 kts | 76° |
| 2026-05-07 05:19 | 57.25312 | -38.12408 | 38324 ft | 495 kts | 76° |
| 2026-05-07 05:19 | 57.26859 | -38.00096 | 38323 ft | 495 kts | 76° |
| 2026-05-07 05:20 | 57.28406 | -37.87703 | 38319 ft | 495 kts | 76° |
| 2026-05-07 05:20 | 57.29943 | -37.75279 | 38322 ft | 495 kts | 76° |
| 2026-05-07 05:21 | 57.32222 | -37.56650 | 38323 ft | 495 kts | 76° |
| 2026-05-07 05:22 | 57.33720 | -37.44278 | 38327 ft | 495 kts | 76° |
| 2026-05-07 05:22 | 57.35211 | -37.31848 | 38328 ft | 495 kts | 76° |
| 2026-05-07 05:23 | 57.36690 | -37.19408 | 38325 ft | 495 kts | 77° |
| 2026-05-07 05:23 | 57.38151 | -37.07008 | 38327 ft | 495 kts | 77° |
| 2026-05-07 05:24 | 57.39613 | -36.94483 | 38328 ft | 495 kts | 77° |
| 2026-05-07 05:24 | 57.41048 | -36.82075 | 38325 ft | 495 kts | 77° |
| 2026-05-07 05:25 | 57.42478 | -36.69598 | 38328 ft | 495 kts | 77° |
| 2026-05-07 05:25 | 57.43899 | -36.57077 | 38331 ft | 496 kts | 77° |
| 2026-05-07 05:26 | 57.45307 | -36.44550 | 38329 ft | 496 kts | 77° |
| 2026-05-07 05:26 | 57.46695 | -36.32085 | 38335 ft | 496 kts | 77° |
| 2026-05-07 05:27 | 57.48079 | -36.19529 | 38333 ft | 496 kts | 77° |
| 2026-05-07 05:27 | 57.49450 | -36.06972 | 38327 ft | 496 kts | 77° |
| 2026-05-07 05:28 | 57.50811 | -35.94384 | 38334 ft | 496 kts | 77° |
| 2026-05-07 05:28 | 57.52151 | -35.81867 | 38330 ft | 496 kts | 77° |
| 2026-05-07 05:29 | 57.53483 | -35.69297 | 38330 ft | 496 kts | 77° |
| 2026-05-07 05:29 | 57.54808 | -35.56667 | 38330 ft | 496 kts | 77° |
| 2026-05-07 05:30 | 57.56111 | -35.44110 | 38331 ft | 496 kts | 77° |
| 2026-05-07 05:30 | 57.57411 | -35.31460 | 38330 ft | 496 kts | 77° |
| 2026-05-07 05:31 | 57.58689 | -35.18887 | 38328 ft | 496 kts | 77° |
| 2026-05-07 05:31 | 57.59963 | -35.06233 | 38327 ft | 497 kts | 77° |
| 2026-05-07 05:32 | 57.61222 | -34.93583 | 38317 ft | 497 kts | 77° |
| 2026-05-07 05:32 | 57.62471 | -34.80900 | 38322 ft | 497 kts | 77° |
| 2026-05-07 05:33 | 57.63709 | -34.68197 | 38324 ft | 498 kts | 77° |
| 2026-05-07 05:33 | 57.64928 | -34.55547 | 38319 ft | 499 kts | 77° |
| 2026-05-07 05:34 | 57.66142 | -34.42801 | 38322 ft | 499 kts | 77° |
| 2026-05-07 05:34 | 57.67346 | -34.30019 | 38329 ft | 500 kts | 77° |
| 2026-05-07 05:35 | 57.68537 | -34.17240 | 38321 ft | 500 kts | 77° |
| 2026-05-07 05:35 | 57.69720 | -34.04386 | 38321 ft | 501 kts | 78° |
| 2026-05-07 05:36 | 57.70880 | -33.91633 | 38320 ft | 501 kts | 78° |
| 2026-05-07 05:36 | 57.72035 | -33.78791 | 38314 ft | 502 kts | 78° |
| 2026-05-07 05:37 | 57.73183 | -33.65883 | 38314 ft | 502 kts | 78° |
| 2026-05-07 05:37 | 57.74314 | -33.52991 | 38312 ft | 503 kts | 78° |
| 2026-05-07 05:38 | 57.75435 | -33.40068 | 38308 ft | 503 kts | 78° |
| 2026-05-07 05:38 | 57.76538 | -33.27193 | 38311 ft | 504 kts | 78° |
| 2026-05-07 05:39 | 57.77633 | -33.14255 | 38310 ft | 504 kts | 78° |
| 2026-05-07 05:39 | 57.78718 | -33.01262 | 38307 ft | 505 kts | 78° |
| 2026-05-07 05:40 | 57.79783 | -32.88344 | 38298 ft | 505 kts | 78° |
| 2026-05-07 05:40 | 57.80844 | -32.75303 | 38303 ft | 506 kts | 78° |
| 2026-05-07 05:41 | 57.81889 | -32.62292 | 38303 ft | 506 kts | 78° |
| 2026-05-07 05:41 | 57.82926 | -32.49204 | 38301 ft | 506 kts | 78° |
| 2026-05-07 05:42 | 57.83949 | -32.36120 | 38303 ft | 507 kts | 78° |
| 2026-05-07 05:42 | 57.84958 | -32.23034 | 38298 ft | 507 kts | 78° |
| 2026-05-07 05:43 | 57.85949 | -32.09998 | 38296 ft | 507 kts | 78° |
| 2026-05-07 05:43 | 57.86932 | -31.96849 | 38294 ft | 511 kts | 77° |
| 2026-05-07 05:44 | 57.87910 | -31.83646 | 38297 ft | 514 kts | 78° |
| 2026-05-07 05:44 | 57.88884 | -31.70266 | 38297 ft | 515 kts | 78° |
| 2026-05-07 05:45 | 57.89835 | -31.57007 | 38295 ft | 515 kts | 78° |
| 2026-05-07 05:45 | 57.90778 | -31.43649 | 38291 ft | 515 kts | 78° |
| 2026-05-07 05:46 | 57.91705 | -31.30311 | 38292 ft | 515 kts | 78° |
| 2026-05-07 05:46 | 57.92618 | -31.16972 | 38295 ft | 514 kts | 78° |
| 2026-05-07 05:47 | 57.93518 | -31.03613 | 38288 ft | 514 kts | 78° |
| 2026-05-07 05:47 | 57.94399 | -30.90346 | 38286 ft | 514 kts | 79° |
| 2026-05-07 05:48 | 57.95272 | -30.76972 | 38282 ft | 514 kts | 79° |
| 2026-05-07 05:48 | 57.96129 | -30.63614 | 38283 ft | 514 kts | 79° |
| 2026-05-07 05:49 | 57.96973 | -30.50228 | 38282 ft | 514 kts | 79° |
| 2026-05-07 05:49 | 57.97795 | -30.36956 | 38278 ft | 514 kts | 79° |
| 2026-05-07 05:50 | 57.98611 | -30.23547 | 38279 ft | 514 kts | 79° |
| 2026-05-07 05:50 | 57.99411 | -30.10184 | 38275 ft | 514 kts | 79° |
| 2026-05-07 05:51 | 58.00196 | -29.96768 | 38264 ft | 514 kts | 80° |
| 2026-05-07 05:51 | 58.00756 | -29.83386 | 38283 ft | 516 kts | 83° |
| 2026-05-07 05:52 | 58.01196 | -29.69891 | 38271 ft | 516 kts | 83° |
| 2026-05-07 05:52 | 58.01651 | -29.56398 | 38269 ft | 515 kts | 82° |
| 2026-05-07 05:53 | 58.02120 | -29.42911 | 38265 ft | 515 kts | 82° |
| 2026-05-07 05:53 | 58.02585 | -29.29416 | 38268 ft | 515 kts | 83° |
| 2026-05-07 05:54 | 58.03035 | -29.15935 | 38263 ft | 515 kts | 83° |
| 2026-05-07 05:54 | 58.03467 | -29.02528 | 38261 ft | 516 kts | 83° |
| 2026-05-07 05:55 | 58.03887 | -28.88996 | 38255 ft | 515 kts | 83° |
| 2026-05-07 05:55 | 58.04292 | -28.75509 | 38255 ft | 515 kts | 83° |
| 2026-05-07 05:56 | 58.04682 | -28.62003 | 38254 ft | 515 kts | 83° |
| 2026-05-07 05:56 | 58.05057 | -28.48569 | 38249 ft | 515 kts | 83° |
| 2026-05-07 05:57 | 58.05419 | -28.35076 | 38248 ft | 516 kts | 83° |
| 2026-05-07 05:57 | 58.05768 | -28.21541 | 38244 ft | 515 kts | 84° |
| 2026-05-07 05:58 | 58.06102 | -28.08017 | 38243 ft | 515 kts | 84° |
| 2026-05-07 05:58 | 58.06419 | -27.94585 | 38240 ft | 515 kts | 84° |
| 2026-05-07 05:59 | 58.06724 | -27.81057 | 38237 ft | 516 kts | 84° |
| 2026-05-07 05:59 | 58.07015 | -27.67538 | 38230 ft | 516 kts | 84° |
| 2026-05-07 06:00 | 58.07290 | -27.54078 | 38236 ft | 516 kts | 84° |
| 2026-05-07 06:00 | 58.07552 | -27.40567 | 38229 ft | 516 kts | 84° |
| 2026-05-07 06:01 | 58.07801 | -27.27017 | 38228 ft | 516 kts | 84° |
| 2026-05-07 06:01 | 58.08034 | -27.13479 | 38226 ft | 516 kts | 85° |
| 2026-05-07 06:02 | 58.08255 | -26.99897 | 38224 ft | 516 kts | 85° |
| 2026-05-07 06:02 | 58.08459 | -26.86404 | 38210 ft | 516 kts | 85° |
| 2026-05-07 06:03 | 58.08649 | -26.72855 | 38215 ft | 516 kts | 85° |
| 2026-05-07 06:03 | 58.08826 | -26.59290 | 38211 ft | 516 kts | 85° |
| 2026-05-07 06:04 | 58.08988 | -26.45730 | 38208 ft | 516 kts | 85° |
| 2026-05-07 06:04 | 58.09135 | -26.32190 | 38199 ft | 516 kts | 86° |
| 2026-05-07 06:05 | 58.09268 | -26.18687 | 38206 ft | 516 kts | 86° |
| 2026-05-07 06:05 | 58.09387 | -26.05123 | 38191 ft | 516 kts | 86° |
| 2026-05-07 06:06 | 58.09491 | -25.91528 | 38192 ft | 516 kts | 86° |
| 2026-05-07 06:06 | 58.09581 | -25.77975 | 38190 ft | 516 kts | 86° |
| 2026-05-07 06:07 | 58.09657 | -25.64399 | 38183 ft | 517 kts | 86° |
| 2026-05-07 06:07 | 58.09718 | -25.50829 | 38183 ft | 517 kts | 87° |
| 2026-05-07 06:08 | 58.09765 | -25.37324 | 38178 ft | 517 kts | 87° |
| 2026-05-07 06:08 | 58.09797 | -25.23754 | 38176 ft | 517 kts | 87° |
| 2026-05-07 06:09 | 58.09815 | -25.10184 | 38172 ft | 517 kts | 87° |
| 2026-05-07 06:09 | 58.09819 | -24.96689 | 38167 ft | 517 kts | 88° |
| 2026-05-07 06:10 | 58.09808 | -24.83098 | 38163 ft | 517 kts | 88° |
| 2026-05-07 06:10 | 58.09783 | -24.69516 | 38159 ft | 517 kts | 88° |
| 2026-05-07 06:11 | 58.09743 | -24.55948 | 38151 ft | 517 kts | 88° |
| 2026-05-07 06:11 | 58.09689 | -24.42443 | 38153 ft | 517 kts | 88° |
| 2026-05-07 06:12 | 58.09621 | -24.28863 | 38149 ft | 517 kts | 88° |
| 2026-05-07 06:12 | 58.09538 | -24.15286 | 38143 ft | 517 kts | 88° |
| 2026-05-07 06:13 | 58.09440 | -24.01711 | 38139 ft | 517 kts | 89° |
| 2026-05-07 06:13 | 58.09328 | -23.88098 | 38136 ft | 517 kts | 89° |
| 2026-05-07 06:14 | 58.09202 | -23.74490 | 38128 ft | 518 kts | 89° |
| 2026-05-07 06:14 | 58.09062 | -23.61014 | 38121 ft | 518 kts | 89° |
| 2026-05-07 06:15 | 58.08906 | -23.47337 | 38123 ft | 519 kts | 89° |
| 2026-05-07 06:15 | 58.08736 | -23.33714 | 38118 ft | 519 kts | 89° |
| 2026-05-07 06:16 | 58.08552 | -23.20164 | 38116 ft | 519 kts | 89° |
| 2026-05-07 06:16 | 58.08353 | -23.06512 | 38110 ft | 520 kts | 90° |
| 2026-05-07 06:17 | 58.08139 | -22.92876 | 38103 ft | 520 kts | 90° |
| 2026-05-07 06:17 | 58.07910 | -22.79219 | 38099 ft | 521 kts | 90° |
| 2026-05-07 06:18 | 58.07665 | -22.65545 | 38098 ft | 521 kts | 90° |
| 2026-05-07 06:18 | 58.07408 | -22.51929 | 38084 ft | 521 kts | 90° |
| 2026-05-07 06:19 | 58.07137 | -22.38247 | 38073 ft | 522 kts | 90° |
| 2026-05-07 06:19 | 58.06847 | -22.24560 | 38074 ft | 522 kts | 91° |
| 2026-05-07 06:20 | 58.06543 | -22.10868 | 38065 ft | 522 kts | 91° |
| 2026-05-07 06:20 | 58.06226 | -21.97127 | 38064 ft | 523 kts | 91° |
| 2026-05-07 06:21 | 58.05893 | -21.83415 | 38058 ft | 524 kts | 91° |
| 2026-05-07 06:21 | 58.05545 | -21.69781 | 38057 ft | 524 kts | 91° |
| 2026-05-07 06:22 | 58.05181 | -21.56016 | 38046 ft | 524 kts | 91° |
| 2026-05-07 06:22 | 58.04609 | -21.35412 | 38035 ft | 524 kts | 92° |
| 2026-05-07 06:23 | 58.04211 | -21.21735 | 38031 ft | 525 kts | 92° |
| 2026-05-07 06:23 | 58.03797 | -21.08022 | 38023 ft | 526 kts | 92° |
| 2026-05-07 06:24 | 58.03363 | -20.94194 | 38015 ft | 526 kts | 92° |
| 2026-05-07 06:24 | 58.02916 | -20.80409 | 38011 ft | 526 kts | 92° |
| 2026-05-07 06:25 | 58.02457 | -20.66705 | 38001 ft | 527 kts | 93° |
| 2026-05-07 06:25 | 58.01980 | -20.52935 | 37994 ft | 527 kts | 93° |
| 2026-05-07 06:26 | 58.01487 | -20.39109 | 37993 ft | 528 kts | 93° |
| 2026-05-07 06:26 | 58.00979 | -20.25306 | 37984 ft | 528 kts | 93° |
| 2026-05-07 06:27 | 58.00460 | -20.11571 | 37978 ft | 528 kts | 94° |
| 2026-05-07 06:27 | 57.99505 | -19.97857 | 37964 ft | 529 kts | 105° |
| 2026-05-07 06:28 | 57.97362 | -19.84593 | 37961 ft | 529 kts | 109° |
| 2026-05-07 06:28 | 57.95019 | -19.71481 | 37954 ft | 529 kts | 109° |
| 2026-05-07 06:29 | 57.92652 | -19.58428 | 37945 ft | 530 kts | 110° |
| 2026-05-07 06:29 | 57.90264 | -19.45230 | 37934 ft | 530 kts | 109° |
| 2026-05-07 06:30 | 57.87903 | -19.32199 | 37929 ft | 530 kts | 110° |
| 2026-05-07 06:30 | 57.85529 | -19.19173 | 37920 ft | 530 kts | 110° |
| 2026-05-07 06:31 | 57.83111 | -19.06002 | 37910 ft | 530 kts | 110° |
| 2026-05-07 06:31 | 57.80701 | -18.92964 | 37902 ft | 530 kts | 110° |
| 2026-05-07 06:32 | 57.78284 | -18.79983 | 37892 ft | 530 kts | 110° |
| 2026-05-07 06:32 | 57.75848 | -18.66985 | 37885 ft | 530 kts | 111° |
| 2026-05-07 06:33 | 57.73391 | -18.53967 | 37878 ft | 530 kts | 111° |
| 2026-05-07 06:33 | 57.70930 | -18.41011 | 37870 ft | 530 kts | 111° |
| 2026-05-07 06:34 | 57.68447 | -18.28040 | 37864 ft | 530 kts | 111° |
| 2026-05-07 06:34 | 57.65954 | -18.15095 | 37853 ft | 530 kts | 111° |
| 2026-05-07 06:35 | 57.63488 | -18.02101 | 37852 ft | 530 kts | 110° |
| 2026-05-07 06:35 | 57.61357 | -17.88943 | 37851 ft | 531 kts | 107° |
| 2026-05-07 06:36 | 57.59553 | -17.75587 | 37820 ft | 531 kts | 104° |
| 2026-05-07 06:36 | 57.58372 | -17.69189 | 37857 ft | 529 kts | 116° |
| 2026-05-07 06:36 | 57.56785 | -17.63004 | 38072 ft | 527 kts | 119° |
| 2026-05-07 06:37 | 57.55151 | -17.56925 | 38380 ft | 526 kts | 118° |
| 2026-05-07 06:37 | 57.53584 | -17.50754 | 38585 ft | 526 kts | 116° |
| 2026-05-07 06:37 | 57.52131 | -17.44515 | 38745 ft | 527 kts | 114° |
| 2026-05-07 06:37 | 57.50764 | -17.38196 | 38902 ft | 527 kts | 113° |
| 2026-05-07 06:38 | 57.49452 | -17.31827 | 39059 ft | 528 kts | 112° |
| 2026-05-07 06:38 | 57.48165 | -17.25424 | 39220 ft | 528 kts | 112° |
| 2026-05-07 06:38 | 57.46887 | -17.19029 | 39352 ft | 528 kts | 112° |
| 2026-05-07 06:38 | 57.45624 | -17.12722 | 39538 ft | 527 kts | 112° |
| 2026-05-07 06:39 | 57.44335 | -17.06334 | 39693 ft | 527 kts | 112° |
| 2026-05-07 06:39 | 57.43045 | -16.99990 | 39770 ft | 528 kts | 112° |
| 2026-05-07 06:39 | 57.40431 | -16.87254 | 39768 ft | 527 kts | 112° |
| 2026-05-07 06:40 | 57.37808 | -16.74576 | 39755 ft | 527 kts | 113° |
| 2026-05-07 06:40 | 57.35174 | -16.61923 | 39751 ft | 526 kts | 113° |
| 2026-05-07 06:41 | 57.32543 | -16.49359 | 39743 ft | 526 kts | 113° |
| 2026-05-07 06:41 | 57.29891 | -16.36769 | 39739 ft | 525 kts | 113° |
| 2026-05-07 06:42 | 57.27241 | -16.24273 | 39728 ft | 525 kts | 113° |
| 2026-05-07 06:42 | 57.24554 | -16.11676 | 39730 ft | 524 kts | 114° |
| 2026-05-07 06:43 | 57.21890 | -15.99262 | 39720 ft | 524 kts | 114° |
| 2026-05-07 06:43 | 57.19199 | -15.86797 | 39717 ft | 523 kts | 114° |
| 2026-05-07 06:44 | 57.16496 | -15.74349 | 39712 ft | 522 kts | 114° |
| 2026-05-07 06:44 | 57.13789 | -15.61960 | 39708 ft | 522 kts | 114° |
| 2026-05-07 06:45 | 57.11086 | -15.49667 | 39710 ft | 521 kts | 114° |
| 2026-05-07 06:45 | 57.08364 | -15.37358 | 39703 ft | 520 kts | 114° |
| 2026-05-07 06:46 | 57.05629 | -15.25062 | 39703 ft | 519 kts | 114° |
| 2026-05-07 06:46 | 57.02901 | -15.12863 | 39704 ft | 519 kts | 114° |
| 2026-05-07 06:47 | 57.00381 | -15.00397 | 39700 ft | 520 kts | 105° |
| 2026-05-07 06:47 | 56.99352 | -14.87336 | 39700 ft | 521 kts | 96° |
| 2026-05-07 06:48 | 56.98724 | -14.74070 | 39698 ft | 522 kts | 96° |
| 2026-05-07 06:48 | 56.98129 | -14.60853 | 39697 ft | 521 kts | 96° |
| 2026-05-07 06:49 | 56.97496 | -14.47692 | 39691 ft | 521 kts | 96° |
| 2026-05-07 06:49 | 56.96828 | -14.34468 | 39688 ft | 521 kts | 96° |
| 2026-05-07 06:50 | 56.96143 | -14.21271 | 39690 ft | 520 kts | 96° |
| 2026-05-07 06:50 | 56.95444 | -14.08077 | 39687 ft | 520 kts | 97° |
| 2026-05-07 06:51 | 56.94234 | -13.95154 | 39689 ft | 518 kts | 106° |
| 2026-05-07 06:51 | 56.92359 | -13.82440 | 39692 ft | 517 kts | 107° |
| 2026-05-07 06:52 | 56.90380 | -13.69769 | 39705 ft | 517 kts | 108° |
| 2026-05-07 06:52 | 56.88391 | -13.57130 | 39699 ft | 517 kts | 108° |
| 2026-05-07 06:53 | 56.86414 | -13.44581 | 39685 ft | 517 kts | 108° |
| 2026-05-07 06:53 | 56.84418 | -13.31958 | 39694 ft | 517 kts | 108° |
| 2026-05-07 06:54 | 56.82411 | -13.19360 | 39696 ft | 517 kts | 108° |
| 2026-05-07 06:54 | 56.80396 | -13.06803 | 39696 ft | 516 kts | 108° |
| 2026-05-07 06:55 | 56.78361 | -12.94221 | 39700 ft | 516 kts | 108° |
| 2026-05-07 06:55 | 56.76319 | -12.81683 | 39705 ft | 516 kts | 108° |
| 2026-05-07 06:56 | 56.74277 | -12.69236 | 39706 ft | 516 kts | 108° |
| 2026-05-07 06:56 | 56.72205 | -12.56697 | 39711 ft | 516 kts | 109° |
| 2026-05-07 06:57 | 56.70124 | -12.44196 | 39711 ft | 516 kts | 109° |
| 2026-05-07 06:57 | 56.68040 | -12.31764 | 39709 ft | 516 kts | 109° |
| 2026-05-07 06:58 | 56.65933 | -12.19284 | 39714 ft | 516 kts | 109° |
| 2026-05-07 06:58 | 56.63814 | -12.06815 | 39718 ft | 516 kts | 109° |
| 2026-05-07 06:59 | 56.61682 | -11.94364 | 39719 ft | 516 kts | 109° |
| 2026-05-07 06:59 | 56.59538 | -11.81925 | 39728 ft | 516 kts | 109° |
| 2026-05-07 07:00 | 56.57402 | -11.69615 | 39732 ft | 516 kts | 110° |
| 2026-05-07 07:00 | 56.55230 | -11.57189 | 39731 ft | 516 kts | 110° |
| 2026-05-07 07:01 | 56.53046 | -11.44778 | 39737 ft | 516 kts | 110° |
| 2026-05-07 07:01 | 56.50859 | -11.32436 | 39742 ft | 516 kts | 110° |
| 2026-05-07 07:02 | 56.48669 | -11.20156 | 39744 ft | 515 kts | 110° |
| 2026-05-07 07:02 | 56.46457 | -11.07834 | 39748 ft | 515 kts | 110° |
| 2026-05-07 07:03 | 56.44232 | -10.95524 | 39751 ft | 515 kts | 110° |
| 2026-05-07 07:03 | 56.41994 | -10.83221 | 39754 ft | 515 kts | 110° |
| 2026-05-07 07:04 | 56.39760 | -10.71023 | 39760 ft | 514 kts | 111° |
| 2026-05-07 07:04 | 56.37508 | -10.58806 | 39765 ft | 514 kts | 111° |
| 2026-05-07 07:05 | 56.35239 | -10.46577 | 39767 ft | 513 kts | 111° |
| 2026-05-07 07:05 | 56.32963 | -10.34387 | 39775 ft | 512 kts | 111° |
| 2026-05-07 07:06 | 56.30683 | -10.22258 | 39777 ft | 512 kts | 111° |
| 2026-05-07 07:06 | 56.28406 | -10.10219 | 39779 ft | 511 kts | 111° |
| 2026-05-07 07:07 | 56.26101 | -9.98105 | 39783 ft | 510 kts | 111° |
| 2026-05-07 07:07 | 56.24232 | -9.88069 | 39786 ft | 510 kts | 111° |
| 2026-05-07 07:08 | 56.22010 | -9.75951 | 39791 ft | 509 kts | 111° |
| 2026-05-07 07:08 | 56.19783 | -9.63908 | 39799 ft | 509 kts | 111° |
| 2026-05-07 07:09 | 56.17161 | -9.49899 | 39801 ft | 508 kts | 111° |
| 2026-05-07 07:09 | 56.15278 | -9.39924 | 39805 ft | 508 kts | 111° |
| 2026-05-07 07:10 | 56.12634 | -9.25998 | 39810 ft | 507 kts | 111° |
| 2026-05-07 07:10 | 56.10723 | -9.15997 | 39816 ft | 507 kts | 111° |
| 2026-05-07 07:11 | 56.08426 | -9.04039 | 39821 ft | 507 kts | 111° |
| 2026-05-07 07:11 | 56.06130 | -8.92162 | 39828 ft | 507 kts | 111° |
| 2026-05-07 07:12 | 56.03816 | -8.80264 | 39830 ft | 506 kts | 112° |
| 2026-05-07 07:12 | 56.01512 | -8.68488 | 39832 ft | 506 kts | 112° |
| 2026-05-07 07:13 | 55.99173 | -8.56612 | 39841 ft | 505 kts | 112° |
| 2026-05-07 07:13 | 55.96831 | -8.44789 | 39855 ft | 505 kts | 112° |
| 2026-05-07 07:14 | 55.94478 | -8.32980 | 39856 ft | 505 kts | 112° |
| 2026-05-07 07:14 | 55.92111 | -8.21173 | 39855 ft | 505 kts | 112° |
| 2026-05-07 07:15 | 55.89764 | -8.09538 | 39859 ft | 504 kts | 112° |
| 2026-05-07 07:15 | 55.87375 | -7.97759 | 39862 ft | 504 kts | 112° |
| 2026-05-07 07:16 | 55.84964 | -7.85946 | 39869 ft | 504 kts | 112° |
| 2026-05-07 07:16 | 55.82544 | -7.74155 | 39870 ft | 503 kts | 112° |
| 2026-05-07 07:17 | 55.80138 | -7.62504 | 39874 ft | 503 kts | 112° |
| 2026-05-07 07:17 | 55.77709 | -7.50812 | 39877 ft | 502 kts | 112° |
| 2026-05-07 07:18 | 55.75281 | -7.39192 | 39881 ft | 502 kts | 112° |
| 2026-05-07 07:18 | 55.72842 | -7.27585 | 39886 ft | 502 kts | 112° |
| 2026-05-07 07:19 | 55.70407 | -7.16058 | 39886 ft | 502 kts | 112° |
| 2026-05-07 07:19 | 55.67983 | -7.04651 | 39897 ft | 502 kts | 112° |
| 2026-05-07 07:20 | 55.65488 | -6.92977 | 39899 ft | 501 kts | 112° |
| 2026-05-07 07:20 | 55.63007 | -6.81436 | 39910 ft | 501 kts | 112° |
| 2026-05-07 07:21 | 55.60512 | -6.69893 | 39919 ft | 501 kts | 113° |
| 2026-05-07 07:21 | 55.58015 | -6.58401 | 39924 ft | 501 kts | 113° |
| 2026-05-07 07:22 | 55.55523 | -6.46998 | 39931 ft | 501 kts | 113° |
| 2026-05-07 07:22 | 55.53005 | -6.35541 | 39931 ft | 500 kts | 113° |
| 2026-05-07 07:23 | 55.50480 | -6.24113 | 39931 ft | 500 kts | 113° |
| 2026-05-07 07:23 | 55.47946 | -6.12710 | 39930 ft | 500 kts | 113° |
| 2026-05-07 07:24 | 55.45398 | -6.01306 | 39933 ft | 499 kts | 113° |
| 2026-05-07 07:24 | 55.42848 | -5.89953 | 39938 ft | 499 kts | 113° |
| 2026-05-07 07:25 | 55.39015 | -5.73002 | 39939 ft | 498 kts | 113° |
| 2026-05-07 07:26 | 55.36438 | -5.61683 | 39937 ft | 497 kts | 113° |
| 2026-05-07 07:26 | 55.33857 | -5.50410 | 39938 ft | 497 kts | 114° |
| 2026-05-07 07:27 | 55.31289 | -5.39247 | 39939 ft | 497 kts | 114° |
| 2026-05-07 07:27 | 55.28690 | -5.28014 | 39943 ft | 497 kts | 114° |
| 2026-05-07 07:28 | 55.26062 | -5.16715 | 39946 ft | 497 kts | 114° |
| 2026-05-07 07:28 | 55.23421 | -5.05416 | 39952 ft | 497 kts | 114° |
| 2026-05-07 07:29 | 55.20793 | -4.94231 | 39957 ft | 496 kts | 114° |
| 2026-05-07 07:29 | 55.18160 | -4.83085 | 39961 ft | 496 kts | 114° |
| 2026-05-07 07:30 | 55.15489 | -4.71868 | 39967 ft | 496 kts | 115° |
| 2026-05-07 07:30 | 55.12629 | -4.60991 | 39974 ft | 495 kts | 117° |
| 2026-05-07 07:31 | 55.09653 | -4.50161 | 39980 ft | 495 kts | 117° |
| 2026-05-07 07:31 | 55.06694 | -4.39298 | 39984 ft | 495 kts | 117° |
| 2026-05-07 07:32 | 55.03757 | -4.28440 | 39988 ft | 495 kts | 116° |
| 2026-05-07 07:32 | 55.00834 | -4.17651 | 39994 ft | 495 kts | 116° |
| 2026-05-07 07:33 | 54.97870 | -4.06764 | 40015 ft | 495 kts | 116° |
| 2026-05-07 07:33 | 54.94928 | -3.96012 | 40019 ft | 494 kts | 116° |
| 2026-05-07 07:34 | 54.91960 | -3.85224 | 40016 ft | 494 kts | 117° |
| 2026-05-07 07:34 | 54.88987 | -3.74466 | 39997 ft | 494 kts | 117° |
| 2026-05-07 07:35 | 54.86013 | -3.63753 | 40016 ft | 493 kts | 117° |
| 2026-05-07 07:35 | 54.83015 | -3.53002 | 40011 ft | 493 kts | 117° |
| 2026-05-07 07:36 | 54.80011 | -3.42282 | 40011 ft | 493 kts | 117° |
| 2026-05-07 07:36 | 54.77047 | -3.31753 | 40013 ft | 493 kts | 117° |
| 2026-05-07 07:37 | 54.74019 | -3.21045 | 40016 ft | 492 kts | 117° |
| 2026-05-07 07:37 | 54.70994 | -3.10397 | 40019 ft | 492 kts | 117° |
| 2026-05-07 07:38 | 54.67982 | -2.99840 | 40021 ft | 492 kts | 117° |
| 2026-05-07 07:38 | 54.64940 | -2.89229 | 40023 ft | 492 kts | 117° |
| 2026-05-07 07:39 | 54.61902 | -2.78679 | 40025 ft | 492 kts | 117° |
| 2026-05-07 07:39 | 54.58862 | -2.68172 | 40030 ft | 492 kts | 117° |
| 2026-05-07 07:40 | 54.55781 | -2.57566 | 40028 ft | 491 kts | 117° |
| 2026-05-07 07:40 | 54.52730 | -2.47113 | 40032 ft | 491 kts | 117° |
| 2026-05-07 07:41 | 54.49660 | -2.36645 | 40035 ft | 490 kts | 117° |
| 2026-05-07 07:41 | 54.46591 | -2.26225 | 40036 ft | 490 kts | 117° |
| 2026-05-07 07:42 | 54.43475 | -2.15691 | 40039 ft | 490 kts | 117° |
| 2026-05-07 07:42 | 54.40377 | -2.05266 | 40048 ft | 490 kts | 117° |
| 2026-05-07 07:43 | 54.37285 | -1.94905 | 40059 ft | 491 kts | 118° |
| 2026-05-07 07:43 | 54.34169 | -1.84511 | 40065 ft | 491 kts | 118° |
| 2026-05-07 07:44 | 54.31037 | -1.74107 | 40069 ft | 491 kts | 118° |
| 2026-05-07 07:44 | 54.27893 | -1.63709 | 40075 ft | 492 kts | 118° |
| 2026-05-07 07:45 | 54.24734 | -1.53308 | 40075 ft | 492 kts | 118° |
| 2026-05-07 07:45 | 54.21577 | -1.42958 | 40076 ft | 492 kts | 118° |
| 2026-05-07 07:46 | 54.18401 | -1.32589 | 40077 ft | 492 kts | 118° |
| 2026-05-07 07:46 | 54.15216 | -1.22238 | 40072 ft | 492 kts | 118° |
| 2026-05-07 07:47 | 54.12047 | -1.11981 | 40072 ft | 492 kts | 118° |
| 2026-05-07 07:47 | 54.08855 | -1.01695 | 40072 ft | 492 kts | 118° |
| 2026-05-07 07:48 | 54.05636 | -0.91382 | 40072 ft | 491 kts | 119° |
| 2026-05-07 07:48 | 54.01623 | -0.82089 | 40074 ft | 489 kts | 136° |
| 2026-05-07 07:49 | 53.96282 | -0.74914 | 40076 ft | 487 kts | 146° |
| 2026-05-07 07:49 | 53.90719 | -0.68441 | 40078 ft | 488 kts | 147° |
| 2026-05-07 07:50 | 53.85097 | -0.61992 | 40077 ft | 487 kts | 147° |
| 2026-05-07 07:50 | 53.79536 | -0.55567 | 40085 ft | 487 kts | 146° |
| 2026-05-07 07:51 | 53.73940 | -0.49083 | 40092 ft | 487 kts | 146° |
| 2026-05-07 07:51 | 53.68356 | -0.42621 | 40099 ft | 487 kts | 146° |
| 2026-05-07 07:52 | 53.62787 | -0.36197 | 40102 ft | 487 kts | 146° |
| 2026-05-07 07:52 | 53.57473 | -0.29213 | 40101 ft | 488 kts | 135° |
| 2026-05-07 07:53 | 53.53140 | -0.20421 | 40101 ft | 488 kts | 128° |
| 2026-05-07 07:53 | 53.49080 | -0.11325 | 40094 ft | 489 kts | 127° |
| 2026-05-07 07:54 | 53.45011 | -0.02172 | 40091 ft | 489 kts | 127° |
| 2026-05-07 07:54 | 53.40924 | 0.06905 | 40081 ft | 489 kts | 128° |
| 2026-05-07 07:55 | 53.36810 | 0.15961 | 40082 ft | 489 kts | 128° |
| 2026-05-07 07:55 | 53.32691 | 0.24987 | 40077 ft | 489 kts | 128° |
| 2026-05-07 07:56 | 53.28572 | 0.33984 | 40078 ft | 489 kts | 128° |
| 2026-05-07 07:56 | 53.24430 | 0.43002 | 40081 ft | 490 kts | 128° |
| 2026-05-07 07:57 | 53.20278 | 0.52027 | 40078 ft | 490 kts | 128° |
| 2026-05-07 07:57 | 53.16111 | 0.61024 | 40084 ft | 490 kts | 128° |
| 2026-05-07 07:58 | 53.11937 | 0.70008 | 40083 ft | 490 kts | 128° |
| 2026-05-07 07:58 | 53.07791 | 0.78905 | 40087 ft | 491 kts | 128° |
| 2026-05-07 07:59 | 53.03600 | 0.87869 | 40085 ft | 491 kts | 128° |
| 2026-05-07 07:59 | 52.99438 | 0.96870 | 40079 ft | 491 kts | 125° |
| 2026-05-07 08:00 | 52.96308 | 1.06940 | 40088 ft | 492 kts | 112° |
| 2026-05-07 08:00 | 52.93849 | 1.17548 | 40091 ft | 493 kts | 111° |
| 2026-05-07 08:01 | 52.91492 | 1.28129 | 40096 ft | 493 kts | 111° |
| 2026-05-07 08:01 | 52.89093 | 1.38774 | 40098 ft | 494 kts | 111° |
| 2026-05-07 08:02 | 52.86660 | 1.49412 | 40100 ft | 494 kts | 111° |
| 2026-05-07 08:02 | 52.84215 | 1.60016 | 40096 ft | 494 kts | 111° |
| 2026-05-07 08:03 | 52.81753 | 1.70639 | 40093 ft | 494 kts | 111° |
| 2026-05-07 08:03 | 52.79299 | 1.81176 | 40088 ft | 494 kts | 111° |
| 2026-05-07 08:04 | 52.76809 | 1.91822 | 40086 ft | 494 kts | 111° |
| 2026-05-07 08:04 | 52.74334 | 2.02350 | 40084 ft | 495 kts | 112° |
| 2026-05-07 08:05 | 52.71834 | 2.12934 | 40083 ft | 495 kts | 112° |
| 2026-05-07 08:05 | 52.69326 | 2.23499 | 40081 ft | 495 kts | 112° |
| 2026-05-07 08:06 | 52.66804 | 2.34069 | 40079 ft | 495 kts | 112° |
| 2026-05-07 08:06 | 52.64275 | 2.44620 | 40083 ft | 495 kts | 112° |
| 2026-05-07 08:07 | 52.61756 | 2.55076 | 40084 ft | 496 kts | 112° |
| 2026-05-07 08:07 | 52.59198 | 2.65644 | 40077 ft | 496 kts | 112° |
| 2026-05-07 08:08 | 52.56647 | 2.76133 | 40078 ft | 496 kts | 112° |
| 2026-05-07 08:08 | 52.54072 | 2.86647 | 40080 ft | 496 kts | 113° |
| 2026-05-07 08:09 | 52.51197 | 2.96848 | 40078 ft | 495 kts | 117° |
| 2026-05-07 08:09 | 52.48137 | 3.06947 | 40078 ft | 495 kts | 117° |
| 2026-05-07 08:10 | 52.45104 | 3.17091 | 40074 ft | 495 kts | 116° |
| 2026-05-07 08:10 | 52.42122 | 3.27208 | 40074 ft | 495 kts | 116° |
| 2026-05-07 08:11 | 52.39113 | 3.37430 | 40078 ft | 495 kts | 116° |
| 2026-05-07 08:11 | 52.36132 | 3.47513 | 40072 ft | 495 kts | 117° |
| 2026-05-07 08:12 | 52.33115 | 3.57665 | 40071 ft | 495 kts | 117° |
| 2026-05-07 08:12 | 52.30093 | 3.67785 | 40072 ft | 495 kts | 117° |
| 2026-05-07 08:13 | 52.27089 | 3.77805 | 40072 ft | 495 kts | 117° |
| 2026-05-07 08:13 | 52.24043 | 3.87921 | 40074 ft | 496 kts | 117° |
| 2026-05-07 08:14 | 52.20992 | 3.98014 | 40067 ft | 496 kts | 117° |
| 2026-05-07 08:14 | 52.17944 | 4.08052 | 40066 ft | 496 kts | 117° |
| 2026-05-07 08:15 | 52.14868 | 4.18141 | 40066 ft | 496 kts | 117° |
| 2026-05-07 08:15 | 52.12298 | 4.26536 | 40068 ft | 496 kts | 117° |
| 2026-05-07 08:16 | 52.09240 | 4.36491 | 40069 ft | 496 kts | 117° |
| 2026-05-07 08:16 | 52.06100 | 4.46669 | 40074 ft | 496 kts | 117° |
| 2026-05-07 08:17 | 52.03006 | 4.56656 | 40073 ft | 497 kts | 118° |
| 2026-05-07 08:17 | 51.99890 | 4.66674 | 40068 ft | 497 kts | 118° |
| 2026-05-07 08:18 | 51.96831 | 4.76653 | 40061 ft | 496 kts | 112° |
| 2026-05-07 08:18 | 51.93962 | 4.86804 | 40055 ft | 498 kts | 114° |
| 2026-05-07 08:19 | 51.90839 | 4.96856 | 40061 ft | 497 kts | 118° |
| 2026-05-07 08:19 | 51.87564 | 5.06682 | 40039 ft | 497 kts | 119° |
| 2026-05-07 08:20 | 51.84306 | 5.16508 | 40036 ft | 497 kts | 118° |
| 2026-05-07 08:20 | 51.81092 | 5.26428 | 40056 ft | 497 kts | 118° |
| 2026-05-07 08:21 | 51.77890 | 5.36303 | 40057 ft | 497 kts | 118° |
| 2026-05-07 08:21 | 51.74711 | 5.46143 | 40049 ft | 497 kts | 118° |
| 2026-05-07 08:22 | 51.71513 | 5.56049 | 40037 ft | 497 kts | 118° |
| 2026-05-07 08:22 | 51.68305 | 5.65956 | 40048 ft | 497 kts | 118° |
| 2026-05-07 08:23 | 51.65087 | 5.75855 | 40048 ft | 497 kts | 118° |
| 2026-05-07 08:23 | 51.62184 | 5.85850 | 40015 ft | 496 kts | 114° |
| 2026-05-07 08:24 | 51.59003 | 5.95741 | 40047 ft | 497 kts | 121° |
| 2026-05-07 08:24 | 51.55526 | 6.05429 | 40045 ft | 498 kts | 121° |
| 2026-05-07 08:25 | 51.52218 | 6.15119 | 40047 ft | 498 kts | 120° |
| 2026-05-07 08:25 | 51.50601 | 6.20036 | 39833 ft | 498 kts | 116° |
| 2026-05-07 08:25 | 51.49231 | 6.25144 | 39612 ft | 499 kts | 112° |
| 2026-05-07 08:25 | 51.47940 | 6.30339 | 39376 ft | 499 kts | 112° |
| 2026-05-07 08:26 | 51.45413 | 6.40584 | 38952 ft | 499 kts | 112° |
| 2026-05-07 08:26 | 51.44130 | 6.45783 | 38703 ft | 499 kts | 112° |
| 2026-05-07 08:26 | 51.42852 | 6.50954 | 38445 ft | 499 kts | 112° |
| 2026-05-07 08:27 | 51.41576 | 6.56113 | 38175 ft | 499 kts | 112° |
| 2026-05-07 08:27 | 51.40327 | 6.61356 | 37902 ft | 498 kts | 109° |
| 2026-05-07 08:27 | 51.39201 | 6.66595 | 37626 ft | 498 kts | 112° |
| 2026-05-07 08:27 | 51.37898 | 6.71594 | 37369 ft | 497 kts | 114° |
| 2026-05-07 08:28 | 51.36982 | 6.75039 | 37191 ft | 497 kts | 113° |
| 2026-05-07 08:28 | 51.36144 | 6.78241 | 36903 ft | 497 kts | 113° |
| 2026-05-07 08:28 | 51.35169 | 6.82017 | 36455 ft | 496 kts | 112° |
| 2026-05-07 08:29 | 51.33867 | 6.87113 | 35771 ft | 495 kts | 112° |
| 2026-05-07 08:29 | 51.32559 | 6.92263 | 35053 ft | 495 kts | 112° |
| 2026-05-07 08:29 | 51.31275 | 6.97324 | 34273 ft | 496 kts | 112° |
| 2026-05-07 08:29 | 51.29973 | 7.02464 | 33363 ft | 498 kts | 111° |
| 2026-05-07 08:30 | 51.28536 | 7.07562 | 32502 ft | 497 kts | 118° |
| 2026-05-07 08:30 | 51.26671 | 7.12110 | 31676 ft | 496 kts | 128° |
| 2026-05-07 08:30 | 51.24248 | 7.16132 | 30793 ft | 497 kts | 139° |
| 2026-05-07 08:30 | 51.21473 | 7.19287 | 29884 ft | 497 kts | 150° |
| 2026-05-07 08:31 | 51.18400 | 7.21834 | 28862 ft | 497 kts | 154° |
| 2026-05-07 08:31 | 51.15303 | 7.24238 | 28192 ft | 491 kts | 154° |
| 2026-05-07 08:31 | 51.12238 | 7.26626 | 27558 ft | 485 kts | 154° |
| 2026-05-07 08:31 | 51.09231 | 7.29015 | 26911 ft | 480 kts | 153° |
| 2026-05-07 08:32 | 51.08279 | 7.29795 | 26704 ft | 479 kts | 153° |